<?xml version="1.0" encoding="UTF-8" standalone="no" ?>
<gpx xmlns="http://www.topografix.com/GPX/1/1" xmlns:xsi="http://www.w3.org/2001/XMLSchema-instance" xsi:schemaLocation="http://www.topografix.com/GPX/1/1 http://www.topografix.com/GPX/1/1/gpx.xsd" version="1.1" creator="VisuGPX - https://www.visugpx.com">
  <metadata>
    <name>Nieul l'Espoir 6,4 Km</name>
    <desc><![CDATA[Randonnée en boucle au départ du parking du Champ de foire de Nieul l'Espoir]]></desc>
  </metadata>
  <trk>
    <name><![CDATA[Nieul l'Espoir 6,4 Km_1]]></name>
    <extensions>
      <line xmlns="http://www.topografix.com/GPX/gpx_style/0/2">
        <color>0000FF</color>
        <width>4</width>
      </line>
    </extensions>
    <trkseg>
      <trkpt lat="46.48316" lon="0.4546">
        <ele>136.367</ele>
        <time>2022-03-06T13:00:26Z</time>
      </trkpt>
      <trkpt lat="46.4832" lon="0.45468">
        <ele>129.773</ele>
        <time>2022-03-06T13:00:34Z</time>
      </trkpt>
      <trkpt lat="46.4833" lon="0.45466">
        <ele>128.916</ele>
        <time>2022-03-06T13:00:56Z</time>
      </trkpt>
      <trkpt lat="46.48336" lon="0.4547">
        <ele>128.892</ele>
        <time>2022-03-06T13:01:04Z</time>
      </trkpt>
      <trkpt lat="46.48344" lon="0.45471">
        <ele>128.698</ele>
        <time>2022-03-06T13:01:12Z</time>
      </trkpt>
      <trkpt lat="46.4835" lon="0.45475">
        <ele>128.453</ele>
        <time>2022-03-06T13:01:17Z</time>
      </trkpt>
      <trkpt lat="46.48357" lon="0.45478">
        <ele>128.011</ele>
        <time>2022-03-06T13:01:24Z</time>
      </trkpt>
      <trkpt lat="46.48363" lon="0.4548">
        <ele>127.617</ele>
        <time>2022-03-06T13:01:31Z</time>
      </trkpt>
      <trkpt lat="46.4837" lon="0.45482">
        <ele>127.172</ele>
        <time>2022-03-06T13:01:39Z</time>
      </trkpt>
      <trkpt lat="46.48376" lon="0.45487">
        <ele>126.823</ele>
        <time>2022-03-06T13:01:45Z</time>
      </trkpt>
      <trkpt lat="46.48378" lon="0.45497">
        <ele>126.358</ele>
        <time>2022-03-06T13:01:53Z</time>
      </trkpt>
      <trkpt lat="46.48376" lon="0.45506">
        <ele>125.997</ele>
        <time>2022-03-06T13:02:00Z</time>
      </trkpt>
      <trkpt lat="46.48375" lon="0.45516">
        <ele>125.657</ele>
        <time>2022-03-06T13:02:07Z</time>
      </trkpt>
      <trkpt lat="46.48374" lon="0.45527">
        <ele>125.284</ele>
        <time>2022-03-06T13:02:15Z</time>
      </trkpt>
      <trkpt lat="46.48373" lon="0.45536">
        <ele>124.907</ele>
        <time>2022-03-06T13:02:23Z</time>
      </trkpt>
      <trkpt lat="46.48374" lon="0.45547">
        <ele>124.331</ele>
        <time>2022-03-06T13:02:35Z</time>
      </trkpt>
      <trkpt lat="46.48377" lon="0.45558">
        <ele>124.069</ele>
        <time>2022-03-06T13:02:41Z</time>
      </trkpt>
      <trkpt lat="46.48376" lon="0.45569">
        <ele>123.814</ele>
        <time>2022-03-06T13:02:48Z</time>
      </trkpt>
      <trkpt lat="46.48375" lon="0.45578">
        <ele>123.619</ele>
        <time>2022-03-06T13:02:54Z</time>
      </trkpt>
      <trkpt lat="46.48373" lon="0.45589">
        <ele>123.419</ele>
        <time>2022-03-06T13:03:01Z</time>
      </trkpt>
      <trkpt lat="46.48372" lon="0.45598">
        <ele>123.276</ele>
        <time>2022-03-06T13:03:08Z</time>
      </trkpt>
      <trkpt lat="46.48371" lon="0.45608">
        <ele>123.17</ele>
        <time>2022-03-06T13:03:16Z</time>
      </trkpt>
      <trkpt lat="46.4837" lon="0.45618">
        <ele>123.087</ele>
        <time>2022-03-06T13:03:23Z</time>
      </trkpt>
      <trkpt lat="46.48369" lon="0.45628">
        <ele>123.014</ele>
        <time>2022-03-06T13:03:29Z</time>
      </trkpt>
      <trkpt lat="46.48369" lon="0.45639">
        <ele>122.943</ele>
        <time>2022-03-06T13:03:36Z</time>
      </trkpt>
      <trkpt lat="46.48367" lon="0.45649">
        <ele>122.831</ele>
        <time>2022-03-06T13:03:47Z</time>
      </trkpt>
      <trkpt lat="46.48365" lon="0.45658">
        <ele>122.78</ele>
        <time>2022-03-06T13:03:53Z</time>
      </trkpt>
      <trkpt lat="46.48364" lon="0.45669">
        <ele>122.748</ele>
        <time>2022-03-06T13:03:59Z</time>
      </trkpt>
      <trkpt lat="46.48362" lon="0.45678">
        <ele>122.745</ele>
        <time>2022-03-06T13:04:05Z</time>
      </trkpt>
      <trkpt lat="46.48361" lon="0.45688">
        <ele>122.758</ele>
        <time>2022-03-06T13:04:13Z</time>
      </trkpt>
      <trkpt lat="46.4836" lon="0.45698">
        <ele>122.771</ele>
        <time>2022-03-06T13:04:20Z</time>
      </trkpt>
      <trkpt lat="46.48361" lon="0.45708">
        <ele>122.759</ele>
        <time>2022-03-06T13:04:27Z</time>
      </trkpt>
      <trkpt lat="46.48365" lon="0.45717">
        <ele>122.75</ele>
        <time>2022-03-06T13:04:34Z</time>
      </trkpt>
      <trkpt lat="46.48368" lon="0.45726">
        <ele>122.735</ele>
        <time>2022-03-06T13:04:42Z</time>
      </trkpt>
      <trkpt lat="46.48371" lon="0.45736">
        <ele>122.728</ele>
        <time>2022-03-06T13:04:49Z</time>
      </trkpt>
      <trkpt lat="46.48377" lon="0.45739">
        <ele>122.731</ele>
        <time>2022-03-06T13:04:56Z</time>
      </trkpt>
      <trkpt lat="46.48384" lon="0.45741">
        <ele>122.741</ele>
        <time>2022-03-06T13:05:02Z</time>
      </trkpt>
      <trkpt lat="46.48391" lon="0.45743">
        <ele>122.755</ele>
        <time>2022-03-06T13:05:11Z</time>
      </trkpt>
      <trkpt lat="46.48396" lon="0.4575">
        <ele>122.783</ele>
        <time>2022-03-06T13:05:20Z</time>
      </trkpt>
      <trkpt lat="46.484" lon="0.45758">
        <ele>122.816</ele>
        <time>2022-03-06T13:05:28Z</time>
      </trkpt>
      <trkpt lat="46.48401" lon="0.45769">
        <ele>122.857</ele>
        <time>2022-03-06T13:05:37Z</time>
      </trkpt>
      <trkpt lat="46.48401" lon="0.45779">
        <ele>122.901</ele>
        <time>2022-03-06T13:05:47Z</time>
      </trkpt>
      <trkpt lat="46.48401" lon="0.4579">
        <ele>122.932</ele>
        <time>2022-03-06T13:05:54Z</time>
      </trkpt>
      <trkpt lat="46.484" lon="0.45799">
        <ele>122.964</ele>
        <time>2022-03-06T13:06:01Z</time>
      </trkpt>
      <trkpt lat="46.484" lon="0.45809">
        <ele>122.992</ele>
        <time>2022-03-06T13:06:08Z</time>
      </trkpt>
      <trkpt lat="46.48399" lon="0.45819">
        <ele>123.016</ele>
        <time>2022-03-06T13:06:15Z</time>
      </trkpt>
      <trkpt lat="46.48398" lon="0.45829">
        <ele>123.037</ele>
        <time>2022-03-06T13:06:22Z</time>
      </trkpt>
      <trkpt lat="46.48398" lon="0.45839">
        <ele>123.055</ele>
        <time>2022-03-06T13:06:29Z</time>
      </trkpt>
      <trkpt lat="46.48397" lon="0.4585">
        <ele>123.077</ele>
        <time>2022-03-06T13:06:38Z</time>
      </trkpt>
      <trkpt lat="46.48396" lon="0.45859">
        <ele>123.091</ele>
        <time>2022-03-06T13:06:45Z</time>
      </trkpt>
      <trkpt lat="46.48395" lon="0.45868">
        <ele>123.101</ele>
        <time>2022-03-06T13:06:52Z</time>
      </trkpt>
      <trkpt lat="46.48395" lon="0.45878">
        <ele>123.105</ele>
        <time>2022-03-06T13:06:58Z</time>
      </trkpt>
      <trkpt lat="46.48395" lon="0.45889">
        <ele>123.112</ele>
        <time>2022-03-06T13:07:06Z</time>
      </trkpt>
      <trkpt lat="46.48394" lon="0.45899">
        <ele>123.119</ele>
        <time>2022-03-06T13:07:14Z</time>
      </trkpt>
      <trkpt lat="46.48394" lon="0.45909">
        <ele>123.125</ele>
        <time>2022-03-06T13:07:21Z</time>
      </trkpt>
      <trkpt lat="46.48393" lon="0.4592">
        <ele>123.127</ele>
        <time>2022-03-06T13:07:28Z</time>
      </trkpt>
      <trkpt lat="46.48389" lon="0.45927">
        <ele>123.13</ele>
        <time>2022-03-06T13:07:34Z</time>
      </trkpt>
      <trkpt lat="46.48383" lon="0.45931">
        <ele>123.136</ele>
        <time>2022-03-06T13:07:40Z</time>
      </trkpt>
      <trkpt lat="46.48375" lon="0.45932">
        <ele>123.148</ele>
        <time>2022-03-06T13:07:46Z</time>
      </trkpt>
      <trkpt lat="46.48369" lon="0.45935">
        <ele>123.173</ele>
        <time>2022-03-06T13:07:54Z</time>
      </trkpt>
      <trkpt lat="46.48362" lon="0.45937">
        <ele>123.205</ele>
        <time>2022-03-06T13:07:59Z</time>
      </trkpt>
      <trkpt lat="46.48354" lon="0.4594">
        <ele>123.271</ele>
        <time>2022-03-06T13:08:05Z</time>
      </trkpt>
      <trkpt lat="46.48347" lon="0.45942">
        <ele>123.343</ele>
        <time>2022-03-06T13:08:10Z</time>
      </trkpt>
      <trkpt lat="46.48341" lon="0.45943">
        <ele>123.431</ele>
        <time>2022-03-06T13:08:15Z</time>
      </trkpt>
      <trkpt lat="46.48334" lon="0.45945">
        <ele>123.552</ele>
        <time>2022-03-06T13:08:21Z</time>
      </trkpt>
      <trkpt lat="46.48327" lon="0.45948">
        <ele>123.678</ele>
        <time>2022-03-06T13:08:27Z</time>
      </trkpt>
      <trkpt lat="46.4832" lon="0.45952">
        <ele>123.797</ele>
        <time>2022-03-06T13:08:33Z</time>
      </trkpt>
      <trkpt lat="46.48313" lon="0.45957">
        <ele>123.902</ele>
        <time>2022-03-06T13:08:39Z</time>
      </trkpt>
      <trkpt lat="46.48308" lon="0.45965">
        <ele>123.988</ele>
        <time>2022-03-06T13:08:45Z</time>
      </trkpt>
      <trkpt lat="46.48305" lon="0.45974">
        <ele>124.073</ele>
        <time>2022-03-06T13:08:52Z</time>
      </trkpt>
      <trkpt lat="46.48303" lon="0.45985">
        <ele>124.16</ele>
        <time>2022-03-06T13:09:00Z</time>
      </trkpt>
      <trkpt lat="46.48302" lon="0.45994">
        <ele>124.221</ele>
        <time>2022-03-06T13:09:07Z</time>
      </trkpt>
      <trkpt lat="46.48303" lon="0.46004">
        <ele>124.272</ele>
        <time>2022-03-06T13:09:14Z</time>
      </trkpt>
      <trkpt lat="46.48306" lon="0.46013">
        <ele>124.315</ele>
        <time>2022-03-06T13:09:21Z</time>
      </trkpt>
      <trkpt lat="46.48311" lon="0.4602">
        <ele>124.35</ele>
        <time>2022-03-06T13:09:27Z</time>
      </trkpt>
      <trkpt lat="46.48315" lon="0.46027">
        <ele>124.401</ele>
        <time>2022-03-06T13:09:34Z</time>
      </trkpt>
      <trkpt lat="46.48319" lon="0.46035">
        <ele>124.453</ele>
        <time>2022-03-06T13:09:41Z</time>
      </trkpt>
      <trkpt lat="46.48323" lon="0.46045">
        <ele>124.497</ele>
        <time>2022-03-06T13:09:48Z</time>
      </trkpt>
      <trkpt lat="46.48328" lon="0.46051">
        <ele>124.531</ele>
        <time>2022-03-06T13:09:54Z</time>
      </trkpt>
      <trkpt lat="46.48332" lon="0.46058">
        <ele>124.565</ele>
        <time>2022-03-06T13:10:00Z</time>
      </trkpt>
      <trkpt lat="46.48336" lon="0.46067">
        <ele>124.598</ele>
        <time>2022-03-06T13:10:07Z</time>
      </trkpt>
      <trkpt lat="46.48335" lon="0.46078">
        <ele>124.626</ele>
        <time>2022-03-06T13:10:14Z</time>
      </trkpt>
      <trkpt lat="46.4833" lon="0.46086">
        <ele>124.648</ele>
        <time>2022-03-06T13:10:20Z</time>
      </trkpt>
      <trkpt lat="46.48324" lon="0.46092">
        <ele>124.676</ele>
        <time>2022-03-06T13:10:28Z</time>
      </trkpt>
      <trkpt lat="46.48317" lon="0.46094">
        <ele>124.698</ele>
        <time>2022-03-06T13:10:33Z</time>
      </trkpt>
      <trkpt lat="46.48311" lon="0.46097">
        <ele>124.745</ele>
        <time>2022-03-06T13:10:38Z</time>
      </trkpt>
      <trkpt lat="46.48304" lon="0.46099">
        <ele>124.808</ele>
        <time>2022-03-06T13:10:43Z</time>
      </trkpt>
      <trkpt lat="46.48297" lon="0.461">
        <ele>124.902</ele>
        <time>2022-03-06T13:10:50Z</time>
      </trkpt>
      <trkpt lat="46.4829" lon="0.46099">
        <ele>124.987</ele>
        <time>2022-03-06T13:10:56Z</time>
      </trkpt>
      <trkpt lat="46.48283" lon="0.46098">
        <ele>125.074</ele>
        <time>2022-03-06T13:11:02Z</time>
      </trkpt>
      <trkpt lat="46.48277" lon="0.46096">
        <ele>125.197</ele>
        <time>2022-03-06T13:11:10Z</time>
      </trkpt>
      <trkpt lat="46.48269" lon="0.46097">
        <ele>125.396</ele>
        <time>2022-03-06T13:11:27Z</time>
      </trkpt>
      <trkpt lat="46.48263" lon="0.461">
        <ele>125.584</ele>
        <time>2022-03-06T13:11:36Z</time>
      </trkpt>
      <trkpt lat="46.48256" lon="0.46101">
        <ele>125.768</ele>
        <time>2022-03-06T13:11:44Z</time>
      </trkpt>
      <trkpt lat="46.4825" lon="0.46105">
        <ele>125.896</ele>
        <time>2022-03-06T13:11:49Z</time>
      </trkpt>
      <trkpt lat="46.48242" lon="0.46104">
        <ele>126.028</ele>
        <time>2022-03-06T13:11:54Z</time>
      </trkpt>
      <trkpt lat="46.48235" lon="0.46103">
        <ele>126.189</ele>
        <time>2022-03-06T13:12:00Z</time>
      </trkpt>
      <trkpt lat="46.48227" lon="0.46103">
        <ele>126.345</ele>
        <time>2022-03-06T13:12:06Z</time>
      </trkpt>
      <trkpt lat="46.4822" lon="0.46103">
        <ele>126.495</ele>
        <time>2022-03-06T13:12:12Z</time>
      </trkpt>
      <trkpt lat="46.48213" lon="0.46102">
        <ele>126.656</ele>
        <time>2022-03-06T13:12:19Z</time>
      </trkpt>
      <trkpt lat="46.48205" lon="0.46101">
        <ele>126.828</ele>
        <time>2022-03-06T13:12:27Z</time>
      </trkpt>
      <trkpt lat="46.48198" lon="0.46101">
        <ele>126.965</ele>
        <time>2022-03-06T13:12:34Z</time>
      </trkpt>
      <trkpt lat="46.48192" lon="0.461">
        <ele>127.091</ele>
        <time>2022-03-06T13:12:41Z</time>
      </trkpt>
      <trkpt lat="46.48185" lon="0.46099">
        <ele>127.187</ele>
        <time>2022-03-06T13:12:47Z</time>
      </trkpt>
      <trkpt lat="46.48178" lon="0.46098">
        <ele>127.288</ele>
        <time>2022-03-06T13:12:54Z</time>
      </trkpt>
      <trkpt lat="46.48171" lon="0.46098">
        <ele>127.377</ele>
        <time>2022-03-06T13:13:01Z</time>
      </trkpt>
      <trkpt lat="46.48163" lon="0.46099">
        <ele>127.455</ele>
        <time>2022-03-06T13:13:08Z</time>
      </trkpt>
      <trkpt lat="46.48156" lon="0.46099">
        <ele>127.517</ele>
        <time>2022-03-06T13:13:14Z</time>
      </trkpt>
      <trkpt lat="46.48149" lon="0.46099">
        <ele>127.578</ele>
        <time>2022-03-06T13:13:20Z</time>
      </trkpt>
      <trkpt lat="46.48143" lon="0.46099">
        <ele>127.633</ele>
        <time>2022-03-06T13:13:26Z</time>
      </trkpt>
      <trkpt lat="46.48136" lon="0.46099">
        <ele>127.705</ele>
        <time>2022-03-06T13:13:35Z</time>
      </trkpt>
      <trkpt lat="46.4813" lon="0.46101">
        <ele>127.762</ele>
        <time>2022-03-06T13:13:42Z</time>
      </trkpt>
      <trkpt lat="46.48123" lon="0.46104">
        <ele>127.809</ele>
        <time>2022-03-06T13:13:48Z</time>
      </trkpt>
      <trkpt lat="46.48116" lon="0.46106">
        <ele>127.866</ele>
        <time>2022-03-06T13:13:55Z</time>
      </trkpt>
      <trkpt lat="46.48109" lon="0.46107">
        <ele>127.942</ele>
        <time>2022-03-06T13:14:03Z</time>
      </trkpt>
      <trkpt lat="46.48102" lon="0.46109">
        <ele>128.029</ele>
        <time>2022-03-06T13:14:13Z</time>
      </trkpt>
      <trkpt lat="46.48095" lon="0.46114">
        <ele>128.071</ele>
        <time>2022-03-06T13:14:18Z</time>
      </trkpt>
      <trkpt lat="46.48088" lon="0.46116">
        <ele>128.123</ele>
        <time>2022-03-06T13:14:24Z</time>
      </trkpt>
      <trkpt lat="46.48081" lon="0.46117">
        <ele>128.175</ele>
        <time>2022-03-06T13:14:31Z</time>
      </trkpt>
      <trkpt lat="46.48074" lon="0.46119">
        <ele>128.221</ele>
        <time>2022-03-06T13:14:38Z</time>
      </trkpt>
      <trkpt lat="46.48067" lon="0.46118">
        <ele>128.256</ele>
        <time>2022-03-06T13:14:46Z</time>
      </trkpt>
      <trkpt lat="46.4806" lon="0.46118">
        <ele>128.28</ele>
        <time>2022-03-06T13:14:52Z</time>
      </trkpt>
      <trkpt lat="46.48053" lon="0.46119">
        <ele>128.301</ele>
        <time>2022-03-06T13:14:58Z</time>
      </trkpt>
      <trkpt lat="46.48046" lon="0.4612">
        <ele>128.315</ele>
        <time>2022-03-06T13:15:06Z</time>
      </trkpt>
      <trkpt lat="46.48039" lon="0.46122">
        <ele>128.32</ele>
        <time>2022-03-06T13:15:14Z</time>
      </trkpt>
      <trkpt lat="46.48032" lon="0.46123">
        <ele>128.315</ele>
        <time>2022-03-06T13:15:22Z</time>
      </trkpt>
      <trkpt lat="46.48025" lon="0.46122">
        <ele>128.306</ele>
        <time>2022-03-06T13:15:29Z</time>
      </trkpt>
      <trkpt lat="46.48018" lon="0.46123">
        <ele>128.287</ele>
        <time>2022-03-06T13:15:40Z</time>
      </trkpt>
      <trkpt lat="46.48012" lon="0.46126">
        <ele>128.272</ele>
        <time>2022-03-06T13:15:47Z</time>
      </trkpt>
      <trkpt lat="46.48007" lon="0.46132">
        <ele>128.273</ele>
        <time>2022-03-06T13:15:53Z</time>
      </trkpt>
      <trkpt lat="46.48" lon="0.46133">
        <ele>128.281</ele>
        <time>2022-03-06T13:16:00Z</time>
      </trkpt>
      <trkpt lat="46.47991" lon="0.46133">
        <ele>128.286</ele>
        <time>2022-03-06T13:16:05Z</time>
      </trkpt>
      <trkpt lat="46.47984" lon="0.46131">
        <ele>128.291</ele>
        <time>2022-03-06T13:16:10Z</time>
      </trkpt>
      <trkpt lat="46.47977" lon="0.4613">
        <ele>128.292</ele>
        <time>2022-03-06T13:16:18Z</time>
      </trkpt>
      <trkpt lat="46.47971" lon="0.46129">
        <ele>128.285</ele>
        <time>2022-03-06T13:16:24Z</time>
      </trkpt>
      <trkpt lat="46.47964" lon="0.46125">
        <ele>128.273</ele>
        <time>2022-03-06T13:16:31Z</time>
      </trkpt>
      <trkpt lat="46.47957" lon="0.46124">
        <ele>128.264</ele>
        <time>2022-03-06T13:16:40Z</time>
      </trkpt>
      <trkpt lat="46.4795" lon="0.46122">
        <ele>128.26</ele>
        <time>2022-03-06T13:16:47Z</time>
      </trkpt>
      <trkpt lat="46.47943" lon="0.4612">
        <ele>128.255</ele>
        <time>2022-03-06T13:16:53Z</time>
      </trkpt>
      <trkpt lat="46.47937" lon="0.46117">
        <ele>128.246</ele>
        <time>2022-03-06T13:16:59Z</time>
      </trkpt>
      <trkpt lat="46.47929" lon="0.46113">
        <ele>128.232</ele>
        <time>2022-03-06T13:17:07Z</time>
      </trkpt>
      <trkpt lat="46.47922" lon="0.46106">
        <ele>128.22</ele>
        <time>2022-03-06T13:17:13Z</time>
      </trkpt>
      <trkpt lat="46.47916" lon="0.46103">
        <ele>128.212</ele>
        <time>2022-03-06T13:17:18Z</time>
      </trkpt>
      <trkpt lat="46.47909" lon="0.46099">
        <ele>128.204</ele>
        <time>2022-03-06T13:17:27Z</time>
      </trkpt>
      <trkpt lat="46.47902" lon="0.46094">
        <ele>128.202</ele>
        <time>2022-03-06T13:17:34Z</time>
      </trkpt>
      <trkpt lat="46.47895" lon="0.46091">
        <ele>128.206</ele>
        <time>2022-03-06T13:17:41Z</time>
      </trkpt>
      <trkpt lat="46.47888" lon="0.46088">
        <ele>128.21</ele>
        <time>2022-03-06T13:17:47Z</time>
      </trkpt>
      <trkpt lat="46.47883" lon="0.46081">
        <ele>128.213</ele>
        <time>2022-03-06T13:17:54Z</time>
      </trkpt>
      <trkpt lat="46.47876" lon="0.46079">
        <ele>128.214</ele>
        <time>2022-03-06T13:18:00Z</time>
      </trkpt>
      <trkpt lat="46.4787" lon="0.46076">
        <ele>128.216</ele>
        <time>2022-03-06T13:18:07Z</time>
      </trkpt>
      <trkpt lat="46.47863" lon="0.46073">
        <ele>128.214</ele>
        <time>2022-03-06T13:18:13Z</time>
      </trkpt>
      <trkpt lat="46.47856" lon="0.46069">
        <ele>128.209</ele>
        <time>2022-03-06T13:18:18Z</time>
      </trkpt>
      <trkpt lat="46.4785" lon="0.46066">
        <ele>128.202</ele>
        <time>2022-03-06T13:18:23Z</time>
      </trkpt>
      <trkpt lat="46.47843" lon="0.46063">
        <ele>128.188</ele>
        <time>2022-03-06T13:18:29Z</time>
      </trkpt>
      <trkpt lat="46.47836" lon="0.4606">
        <ele>128.172</ele>
        <time>2022-03-06T13:18:35Z</time>
      </trkpt>
      <trkpt lat="46.47829" lon="0.46057">
        <ele>128.147</ele>
        <time>2022-03-06T13:18:42Z</time>
      </trkpt>
      <trkpt lat="46.47822" lon="0.46055">
        <ele>128.123</ele>
        <time>2022-03-06T13:18:48Z</time>
      </trkpt>
      <trkpt lat="46.47815" lon="0.46055">
        <ele>128.097</ele>
        <time>2022-03-06T13:18:53Z</time>
      </trkpt>
      <trkpt lat="46.47808" lon="0.46054">
        <ele>128.051</ele>
        <time>2022-03-06T13:19:02Z</time>
      </trkpt>
      <trkpt lat="46.47802" lon="0.46054">
        <ele>128.017</ele>
        <time>2022-03-06T13:19:08Z</time>
      </trkpt>
      <trkpt lat="46.47795" lon="0.46055">
        <ele>127.987</ele>
        <time>2022-03-06T13:19:13Z</time>
      </trkpt>
      <trkpt lat="46.47788" lon="0.46055">
        <ele>127.948</ele>
        <time>2022-03-06T13:19:19Z</time>
      </trkpt>
      <trkpt lat="46.47781" lon="0.46054">
        <ele>127.903</ele>
        <time>2022-03-06T13:19:26Z</time>
      </trkpt>
      <trkpt lat="46.47773" lon="0.46054">
        <ele>127.856</ele>
        <time>2022-03-06T13:19:33Z</time>
      </trkpt>
      <trkpt lat="46.47766" lon="0.46054">
        <ele>127.808</ele>
        <time>2022-03-06T13:19:40Z</time>
      </trkpt>
      <trkpt lat="46.47759" lon="0.46054">
        <ele>127.753</ele>
        <time>2022-03-06T13:19:48Z</time>
      </trkpt>
      <trkpt lat="46.47752" lon="0.46055">
        <ele>127.703</ele>
        <time>2022-03-06T13:19:56Z</time>
      </trkpt>
      <trkpt lat="46.47745" lon="0.46054">
        <ele>127.668</ele>
        <time>2022-03-06T13:20:02Z</time>
      </trkpt>
      <trkpt lat="46.47737" lon="0.46054">
        <ele>127.636</ele>
        <time>2022-03-06T13:20:08Z</time>
      </trkpt>
      <trkpt lat="46.4773" lon="0.46053">
        <ele>127.606</ele>
        <time>2022-03-06T13:20:14Z</time>
      </trkpt>
      <trkpt lat="46.47723" lon="0.46052">
        <ele>127.571</ele>
        <time>2022-03-06T13:20:21Z</time>
      </trkpt>
      <trkpt lat="46.47717" lon="0.46053">
        <ele>127.535</ele>
        <time>2022-03-06T13:20:29Z</time>
      </trkpt>
      <trkpt lat="46.47712" lon="0.46061">
        <ele>127.501</ele>
        <time>2022-03-06T13:20:36Z</time>
      </trkpt>
      <trkpt lat="46.47709" lon="0.46071">
        <ele>127.469</ele>
        <time>2022-03-06T13:20:43Z</time>
      </trkpt>
      <trkpt lat="46.47708" lon="0.46081">
        <ele>127.436</ele>
        <time>2022-03-06T13:20:51Z</time>
      </trkpt>
      <trkpt lat="46.47706" lon="0.4609">
        <ele>127.409</ele>
        <time>2022-03-06T13:20:57Z</time>
      </trkpt>
      <trkpt lat="46.47704" lon="0.46101">
        <ele>127.379</ele>
        <time>2022-03-06T13:21:04Z</time>
      </trkpt>
      <trkpt lat="46.47702" lon="0.4611">
        <ele>127.352</ele>
        <time>2022-03-06T13:21:10Z</time>
      </trkpt>
      <trkpt lat="46.477" lon="0.4612">
        <ele>127.326</ele>
        <time>2022-03-06T13:21:16Z</time>
      </trkpt>
      <trkpt lat="46.47698" lon="0.4613">
        <ele>127.298</ele>
        <time>2022-03-06T13:21:23Z</time>
      </trkpt>
      <trkpt lat="46.47696" lon="0.4614">
        <ele>127.266</ele>
        <time>2022-03-06T13:21:30Z</time>
      </trkpt>
      <trkpt lat="46.47694" lon="0.46149">
        <ele>127.235</ele>
        <time>2022-03-06T13:21:36Z</time>
      </trkpt>
      <trkpt lat="46.47692" lon="0.46159">
        <ele>127.204</ele>
        <time>2022-03-06T13:21:42Z</time>
      </trkpt>
      <trkpt lat="46.4769" lon="0.46168">
        <ele>127.173</ele>
        <time>2022-03-06T13:21:48Z</time>
      </trkpt>
      <trkpt lat="46.47689" lon="0.46178">
        <ele>127.134</ele>
        <time>2022-03-06T13:21:55Z</time>
      </trkpt>
      <trkpt lat="46.47688" lon="0.46188">
        <ele>127.093</ele>
        <time>2022-03-06T13:22:02Z</time>
      </trkpt>
      <trkpt lat="46.47688" lon="0.46198">
        <ele>127.049</ele>
        <time>2022-03-06T13:22:09Z</time>
      </trkpt>
      <trkpt lat="46.47689" lon="0.46208">
        <ele>127.003</ele>
        <time>2022-03-06T13:22:16Z</time>
      </trkpt>
      <trkpt lat="46.4769" lon="0.46219">
        <ele>126.953</ele>
        <time>2022-03-06T13:22:23Z</time>
      </trkpt>
      <trkpt lat="46.47691" lon="0.4623">
        <ele>126.905</ele>
        <time>2022-03-06T13:22:30Z</time>
      </trkpt>
      <trkpt lat="46.47691" lon="0.46239">
        <ele>126.863</ele>
        <time>2022-03-06T13:22:36Z</time>
      </trkpt>
      <trkpt lat="46.47692" lon="0.4625">
        <ele>126.817</ele>
        <time>2022-03-06T13:22:43Z</time>
      </trkpt>
      <trkpt lat="46.47692" lon="0.46259">
        <ele>126.773</ele>
        <time>2022-03-06T13:22:50Z</time>
      </trkpt>
      <trkpt lat="46.47692" lon="0.4627">
        <ele>126.729</ele>
        <time>2022-03-06T13:22:57Z</time>
      </trkpt>
      <trkpt lat="46.47692" lon="0.4628">
        <ele>126.688</ele>
        <time>2022-03-06T13:23:04Z</time>
      </trkpt>
      <trkpt lat="46.47692" lon="0.46291">
        <ele>126.651</ele>
        <time>2022-03-06T13:23:11Z</time>
      </trkpt>
      <trkpt lat="46.47691" lon="0.46301">
        <ele>126.623</ele>
        <time>2022-03-06T13:23:17Z</time>
      </trkpt>
      <trkpt lat="46.47691" lon="0.46311">
        <ele>126.598</ele>
        <time>2022-03-06T13:23:23Z</time>
      </trkpt>
      <trkpt lat="46.4769" lon="0.46321">
        <ele>126.571</ele>
        <time>2022-03-06T13:23:30Z</time>
      </trkpt>
      <trkpt lat="46.4769" lon="0.46332">
        <ele>126.546</ele>
        <time>2022-03-06T13:23:37Z</time>
      </trkpt>
      <trkpt lat="46.4769" lon="0.46341">
        <ele>126.521</ele>
        <time>2022-03-06T13:23:44Z</time>
      </trkpt>
      <trkpt lat="46.4769" lon="0.46351">
        <ele>126.495</ele>
        <time>2022-03-06T13:23:51Z</time>
      </trkpt>
      <trkpt lat="46.47688" lon="0.46361">
        <ele>126.472</ele>
        <time>2022-03-06T13:23:57Z</time>
      </trkpt>
      <trkpt lat="46.47688" lon="0.46371">
        <ele>126.449</ele>
        <time>2022-03-06T13:24:03Z</time>
      </trkpt>
      <trkpt lat="46.47687" lon="0.46381">
        <ele>126.424</ele>
        <time>2022-03-06T13:24:10Z</time>
      </trkpt>
      <trkpt lat="46.47687" lon="0.46391">
        <ele>126.403</ele>
        <time>2022-03-06T13:24:16Z</time>
      </trkpt>
      <trkpt lat="46.47687" lon="0.464">
        <ele>126.38</ele>
        <time>2022-03-06T13:24:23Z</time>
      </trkpt>
      <trkpt lat="46.47687" lon="0.4641">
        <ele>126.358</ele>
        <time>2022-03-06T13:24:30Z</time>
      </trkpt>
      <trkpt lat="46.47687" lon="0.4642">
        <ele>126.335</ele>
        <time>2022-03-06T13:24:37Z</time>
      </trkpt>
      <trkpt lat="46.47686" lon="0.46431">
        <ele>126.314</ele>
        <time>2022-03-06T13:24:44Z</time>
      </trkpt>
      <trkpt lat="46.47685" lon="0.4644">
        <ele>126.295</ele>
        <time>2022-03-06T13:24:51Z</time>
      </trkpt>
      <trkpt lat="46.47684" lon="0.46449">
        <ele>126.283</ele>
        <time>2022-03-06T13:24:56Z</time>
      </trkpt>
      <trkpt lat="46.47683" lon="0.4646">
        <ele>126.267</ele>
        <time>2022-03-06T13:25:03Z</time>
      </trkpt>
      <trkpt lat="46.4768" lon="0.46469">
        <ele>126.257</ele>
        <time>2022-03-06T13:25:09Z</time>
      </trkpt>
      <trkpt lat="46.47678" lon="0.4648">
        <ele>126.243</ele>
        <time>2022-03-06T13:25:17Z</time>
      </trkpt>
      <trkpt lat="46.47676" lon="0.46488">
        <ele>126.237</ele>
        <time>2022-03-06T13:25:23Z</time>
      </trkpt>
      <trkpt lat="46.47673" lon="0.46498">
        <ele>126.232</ele>
        <time>2022-03-06T13:25:30Z</time>
      </trkpt>
      <trkpt lat="46.4767" lon="0.46507">
        <ele>126.231</ele>
        <time>2022-03-06T13:25:36Z</time>
      </trkpt>
      <trkpt lat="46.47666" lon="0.46516">
        <ele>126.233</ele>
        <time>2022-03-06T13:25:43Z</time>
      </trkpt>
      <trkpt lat="46.47663" lon="0.46525">
        <ele>126.239</ele>
        <time>2022-03-06T13:25:51Z</time>
      </trkpt>
      <trkpt lat="46.4766" lon="0.46533">
        <ele>126.245</ele>
        <time>2022-03-06T13:25:58Z</time>
      </trkpt>
      <trkpt lat="46.47656" lon="0.46542">
        <ele>126.256</ele>
        <time>2022-03-06T13:26:06Z</time>
      </trkpt>
      <trkpt lat="46.47652" lon="0.46552">
        <ele>126.272</ele>
        <time>2022-03-06T13:26:13Z</time>
      </trkpt>
      <trkpt lat="46.47649" lon="0.4656">
        <ele>126.291</ele>
        <time>2022-03-06T13:26:19Z</time>
      </trkpt>
      <trkpt lat="46.47646" lon="0.46569">
        <ele>126.32</ele>
        <time>2022-03-06T13:26:26Z</time>
      </trkpt>
      <trkpt lat="46.47642" lon="0.46577">
        <ele>126.355</ele>
        <time>2022-03-06T13:26:33Z</time>
      </trkpt>
      <trkpt lat="46.47638" lon="0.46585">
        <ele>126.395</ele>
        <time>2022-03-06T13:26:40Z</time>
      </trkpt>
      <trkpt lat="46.47634" lon="0.46595">
        <ele>126.436</ele>
        <time>2022-03-06T13:26:47Z</time>
      </trkpt>
      <trkpt lat="46.47631" lon="0.46603">
        <ele>126.48</ele>
        <time>2022-03-06T13:26:55Z</time>
      </trkpt>
      <trkpt lat="46.47627" lon="0.46613">
        <ele>126.513</ele>
        <time>2022-03-06T13:27:02Z</time>
      </trkpt>
      <trkpt lat="46.47624" lon="0.46623">
        <ele>126.543</ele>
        <time>2022-03-06T13:27:09Z</time>
      </trkpt>
      <trkpt lat="46.47623" lon="0.46633">
        <ele>126.574</ele>
        <time>2022-03-06T13:27:16Z</time>
      </trkpt>
      <trkpt lat="46.47621" lon="0.46643">
        <ele>126.606</ele>
        <time>2022-03-06T13:27:23Z</time>
      </trkpt>
      <trkpt lat="46.4762" lon="0.46653">
        <ele>126.64</ele>
        <time>2022-03-06T13:27:30Z</time>
      </trkpt>
      <trkpt lat="46.47618" lon="0.46664">
        <ele>126.67</ele>
        <time>2022-03-06T13:27:37Z</time>
      </trkpt>
      <trkpt lat="46.47617" lon="0.46673">
        <ele>126.697</ele>
        <time>2022-03-06T13:27:43Z</time>
      </trkpt>
      <trkpt lat="46.47617" lon="0.46683">
        <ele>126.729</ele>
        <time>2022-03-06T13:27:50Z</time>
      </trkpt>
      <trkpt lat="46.47616" lon="0.46693">
        <ele>126.763</ele>
        <time>2022-03-06T13:27:57Z</time>
      </trkpt>
      <trkpt lat="46.47616" lon="0.46703">
        <ele>126.796</ele>
        <time>2022-03-06T13:28:04Z</time>
      </trkpt>
      <trkpt lat="46.47616" lon="0.46713">
        <ele>126.831</ele>
        <time>2022-03-06T13:28:11Z</time>
      </trkpt>
      <trkpt lat="46.47614" lon="0.46722">
        <ele>126.864</ele>
        <time>2022-03-06T13:28:17Z</time>
      </trkpt>
      <trkpt lat="46.47613" lon="0.46732">
        <ele>126.905</ele>
        <time>2022-03-06T13:28:23Z</time>
      </trkpt>
      <trkpt lat="46.47612" lon="0.46742">
        <ele>126.955</ele>
        <time>2022-03-06T13:28:30Z</time>
      </trkpt>
      <trkpt lat="46.47612" lon="0.46752">
        <ele>127.009</ele>
        <time>2022-03-06T13:28:38Z</time>
      </trkpt>
      <trkpt lat="46.47611" lon="0.46762">
        <ele>127.05</ele>
        <time>2022-03-06T13:28:45Z</time>
      </trkpt>
      <trkpt lat="46.4761" lon="0.46772">
        <ele>127.092</ele>
        <time>2022-03-06T13:28:52Z</time>
      </trkpt>
      <trkpt lat="46.47608" lon="0.46782">
        <ele>127.133</ele>
        <time>2022-03-06T13:28:59Z</time>
      </trkpt>
      <trkpt lat="46.47606" lon="0.46792">
        <ele>127.174</ele>
        <time>2022-03-06T13:29:06Z</time>
      </trkpt>
      <trkpt lat="46.47603" lon="0.46802">
        <ele>127.223</ele>
        <time>2022-03-06T13:29:14Z</time>
      </trkpt>
      <trkpt lat="46.476" lon="0.46811">
        <ele>127.278</ele>
        <time>2022-03-06T13:29:23Z</time>
      </trkpt>
      <trkpt lat="46.47596" lon="0.46819">
        <ele>127.319</ele>
        <time>2022-03-06T13:29:30Z</time>
      </trkpt>
      <trkpt lat="46.47592" lon="0.46827">
        <ele>127.355</ele>
        <time>2022-03-06T13:29:36Z</time>
      </trkpt>
      <trkpt lat="46.47587" lon="0.46835">
        <ele>127.405</ele>
        <time>2022-03-06T13:29:44Z</time>
      </trkpt>
      <trkpt lat="46.47582" lon="0.46843">
        <ele>127.472</ele>
        <time>2022-03-06T13:29:54Z</time>
      </trkpt>
      <trkpt lat="46.47577" lon="0.46851">
        <ele>127.524</ele>
        <time>2022-03-06T13:30:01Z</time>
      </trkpt>
      <trkpt lat="46.47573" lon="0.46859">
        <ele>127.575</ele>
        <time>2022-03-06T13:30:07Z</time>
      </trkpt>
      <trkpt lat="46.47567" lon="0.46865">
        <ele>127.689</ele>
        <time>2022-03-06T13:30:20Z</time>
      </trkpt>
      <trkpt lat="46.47563" lon="0.46873">
        <ele>127.758</ele>
        <time>2022-03-06T13:30:28Z</time>
      </trkpt>
      <trkpt lat="46.4756" lon="0.46882">
        <ele>127.807</ele>
        <time>2022-03-06T13:30:34Z</time>
      </trkpt>
      <trkpt lat="46.47555" lon="0.46894">
        <ele>127.858</ele>
        <time>2022-03-06T13:30:40Z</time>
      </trkpt>
      <trkpt lat="46.47554" lon="0.46905">
        <ele>127.903</ele>
        <time>2022-03-06T13:30:45Z</time>
      </trkpt>
      <trkpt lat="46.47553" lon="0.46915">
        <ele>127.973</ele>
        <time>2022-03-06T13:30:51Z</time>
      </trkpt>
      <trkpt lat="46.47551" lon="0.46925">
        <ele>128.089</ele>
        <time>2022-03-06T13:31:00Z</time>
      </trkpt>
      <trkpt lat="46.4755" lon="0.46934">
        <ele>128.196</ele>
        <time>2022-03-06T13:31:09Z</time>
      </trkpt>
      <trkpt lat="46.47547" lon="0.46942">
        <ele>128.254</ele>
        <time>2022-03-06T13:31:17Z</time>
      </trkpt>
      <trkpt lat="46.47541" lon="0.46949">
        <ele>128.782</ele>
        <time>2022-03-06T13:32:59Z</time>
      </trkpt>
      <trkpt lat="46.47536" lon="0.46957">
        <ele>128.883</ele>
        <time>2022-03-06T13:33:04Z</time>
      </trkpt>
      <trkpt lat="46.4753" lon="0.46964">
        <ele>128.996</ele>
        <time>2022-03-06T13:33:10Z</time>
      </trkpt>
      <trkpt lat="46.47526" lon="0.46971">
        <ele>129.137</ele>
        <time>2022-03-06T13:33:18Z</time>
      </trkpt>
      <trkpt lat="46.47521" lon="0.46979">
        <ele>129.261</ele>
        <time>2022-03-06T13:33:26Z</time>
      </trkpt>
      <trkpt lat="46.47518" lon="0.46988">
        <ele>129.343</ele>
        <time>2022-03-06T13:33:32Z</time>
      </trkpt>
      <trkpt lat="46.47518" lon="0.46999">
        <ele>129.415</ele>
        <time>2022-03-06T13:33:38Z</time>
      </trkpt>
      <trkpt lat="46.47522" lon="0.47007">
        <ele>129.478</ele>
        <time>2022-03-06T13:33:44Z</time>
      </trkpt>
      <trkpt lat="46.47527" lon="0.47015">
        <ele>129.555</ele>
        <time>2022-03-06T13:33:52Z</time>
      </trkpt>
      <trkpt lat="46.47532" lon="0.4702">
        <ele>129.617</ele>
        <time>2022-03-06T13:33:59Z</time>
      </trkpt>
      <trkpt lat="46.47538" lon="0.47027">
        <ele>129.684</ele>
        <time>2022-03-06T13:34:07Z</time>
      </trkpt>
      <trkpt lat="46.47543" lon="0.47033">
        <ele>129.743</ele>
        <time>2022-03-06T13:34:14Z</time>
      </trkpt>
      <trkpt lat="46.4755" lon="0.47037">
        <ele>129.803</ele>
        <time>2022-03-06T13:34:21Z</time>
      </trkpt>
      <trkpt lat="46.47556" lon="0.47043">
        <ele>129.852</ele>
        <time>2022-03-06T13:34:27Z</time>
      </trkpt>
      <trkpt lat="46.47561" lon="0.47048">
        <ele>129.904</ele>
        <time>2022-03-06T13:34:33Z</time>
      </trkpt>
      <trkpt lat="46.47567" lon="0.47054">
        <ele>129.972</ele>
        <time>2022-03-06T13:34:40Z</time>
      </trkpt>
      <trkpt lat="46.47572" lon="0.4706">
        <ele>130.042</ele>
        <time>2022-03-06T13:34:47Z</time>
      </trkpt>
      <trkpt lat="46.47578" lon="0.47066">
        <ele>130.11</ele>
        <time>2022-03-06T13:34:54Z</time>
      </trkpt>
      <trkpt lat="46.47581" lon="0.47074">
        <ele>130.179</ele>
        <time>2022-03-06T13:35:01Z</time>
      </trkpt>
      <trkpt lat="46.47582" lon="0.47085">
        <ele>130.255</ele>
        <time>2022-03-06T13:35:09Z</time>
      </trkpt>
      <trkpt lat="46.4758" lon="0.47094">
        <ele>130.317</ele>
        <time>2022-03-06T13:35:16Z</time>
      </trkpt>
      <trkpt lat="46.47578" lon="0.47104">
        <ele>130.378</ele>
        <time>2022-03-06T13:35:23Z</time>
      </trkpt>
      <trkpt lat="46.47575" lon="0.47112">
        <ele>130.421</ele>
        <time>2022-03-06T13:35:28Z</time>
      </trkpt>
      <trkpt lat="46.47571" lon="0.47121">
        <ele>130.482</ele>
        <time>2022-03-06T13:35:35Z</time>
      </trkpt>
      <trkpt lat="46.47567" lon="0.47128">
        <ele>130.525</ele>
        <time>2022-03-06T13:35:40Z</time>
      </trkpt>
      <trkpt lat="46.47562" lon="0.47137">
        <ele>130.577</ele>
        <time>2022-03-06T13:35:46Z</time>
      </trkpt>
      <trkpt lat="46.47559" lon="0.47146">
        <ele>130.637</ele>
        <time>2022-03-06T13:35:53Z</time>
      </trkpt>
      <trkpt lat="46.47556" lon="0.47155">
        <ele>130.714</ele>
        <time>2022-03-06T13:36:02Z</time>
      </trkpt>
      <trkpt lat="46.47554" lon="0.47165">
        <ele>130.797</ele>
        <time>2022-03-06T13:36:12Z</time>
      </trkpt>
      <trkpt lat="46.47552" lon="0.47175">
        <ele>130.849</ele>
        <time>2022-03-06T13:36:19Z</time>
      </trkpt>
      <trkpt lat="46.4755" lon="0.47185">
        <ele>130.904</ele>
        <time>2022-03-06T13:36:27Z</time>
      </trkpt>
      <trkpt lat="46.4755" lon="0.47194">
        <ele>130.963</ele>
        <time>2022-03-06T13:36:38Z</time>
      </trkpt>
      <trkpt lat="46.47553" lon="0.47204">
        <ele>130.989</ele>
        <time>2022-03-06T13:36:44Z</time>
      </trkpt>
      <trkpt lat="46.47557" lon="0.47214">
        <ele>131.014</ele>
        <time>2022-03-06T13:36:50Z</time>
      </trkpt>
      <trkpt lat="46.4756" lon="0.47227">
        <ele>131.044</ele>
        <time>2022-03-06T13:36:56Z</time>
      </trkpt>
      <trkpt lat="46.47564" lon="0.47235">
        <ele>131.089</ele>
        <time>2022-03-06T13:37:03Z</time>
      </trkpt>
      <trkpt lat="46.47568" lon="0.47242">
        <ele>131.131</ele>
        <time>2022-03-06T13:37:09Z</time>
      </trkpt>
      <trkpt lat="46.4757" lon="0.47252">
        <ele>131.187</ele>
        <time>2022-03-06T13:37:16Z</time>
      </trkpt>
      <trkpt lat="46.47569" lon="0.47262">
        <ele>131.259</ele>
        <time>2022-03-06T13:37:24Z</time>
      </trkpt>
      <trkpt lat="46.47566" lon="0.47271">
        <ele>131.325</ele>
        <time>2022-03-06T13:37:31Z</time>
      </trkpt>
      <trkpt lat="46.47563" lon="0.47281">
        <ele>131.391</ele>
        <time>2022-03-06T13:37:38Z</time>
      </trkpt>
      <trkpt lat="46.4756" lon="0.4729">
        <ele>131.448</ele>
        <time>2022-03-06T13:37:44Z</time>
      </trkpt>
      <trkpt lat="46.47556" lon="0.47299">
        <ele>131.507</ele>
        <time>2022-03-06T13:37:50Z</time>
      </trkpt>
      <trkpt lat="46.47552" lon="0.47308">
        <ele>131.575</ele>
        <time>2022-03-06T13:37:57Z</time>
      </trkpt>
      <trkpt lat="46.47549" lon="0.47316">
        <ele>131.623</ele>
        <time>2022-03-06T13:38:02Z</time>
      </trkpt>
      <trkpt lat="46.47546" lon="0.47325">
        <ele>131.68</ele>
        <time>2022-03-06T13:38:08Z</time>
      </trkpt>
      <trkpt lat="46.47543" lon="0.47334">
        <ele>131.746</ele>
        <time>2022-03-06T13:38:15Z</time>
      </trkpt>
      <trkpt lat="46.4754" lon="0.47343">
        <ele>131.8</ele>
        <time>2022-03-06T13:38:21Z</time>
      </trkpt>
      <trkpt lat="46.47538" lon="0.47352">
        <ele>131.862</ele>
        <time>2022-03-06T13:38:28Z</time>
      </trkpt>
      <trkpt lat="46.47536" lon="0.47361">
        <ele>131.938</ele>
        <time>2022-03-06T13:38:37Z</time>
      </trkpt>
      <trkpt lat="46.47534" lon="0.47371">
        <ele>131.992</ele>
        <time>2022-03-06T13:38:44Z</time>
      </trkpt>
      <trkpt lat="46.47531" lon="0.47381">
        <ele>132.043</ele>
        <time>2022-03-06T13:38:51Z</time>
      </trkpt>
      <trkpt lat="46.47527" lon="0.47389">
        <ele>132.085</ele>
        <time>2022-03-06T13:38:57Z</time>
      </trkpt>
      <trkpt lat="46.47524" lon="0.47398">
        <ele>132.124</ele>
        <time>2022-03-06T13:39:03Z</time>
      </trkpt>
      <trkpt lat="46.47524" lon="0.47407">
        <ele>132.168</ele>
        <time>2022-03-06T13:39:10Z</time>
      </trkpt>
      <trkpt lat="46.4753" lon="0.47413">
        <ele>132.211</ele>
        <time>2022-03-06T13:39:17Z</time>
      </trkpt>
      <trkpt lat="46.47537" lon="0.47413">
        <ele>132.242</ele>
        <time>2022-03-06T13:39:22Z</time>
      </trkpt>
      <trkpt lat="46.47545" lon="0.47413">
        <ele>132.283</ele>
        <time>2022-03-06T13:39:28Z</time>
      </trkpt>
      <trkpt lat="46.47551" lon="0.47412">
        <ele>132.329</ele>
        <time>2022-03-06T13:39:34Z</time>
      </trkpt>
      <trkpt lat="46.47558" lon="0.4741">
        <ele>132.394</ele>
        <time>2022-03-06T13:39:42Z</time>
      </trkpt>
      <trkpt lat="46.47565" lon="0.47409">
        <ele>132.454</ele>
        <time>2022-03-06T13:39:50Z</time>
      </trkpt>
      <trkpt lat="46.47572" lon="0.47409">
        <ele>132.501</ele>
        <time>2022-03-06T13:39:57Z</time>
      </trkpt>
      <trkpt lat="46.47579" lon="0.47408">
        <ele>132.547</ele>
        <time>2022-03-06T13:40:04Z</time>
      </trkpt>
      <trkpt lat="46.47586" lon="0.47407">
        <ele>132.596</ele>
        <time>2022-03-06T13:40:12Z</time>
      </trkpt>
      <trkpt lat="46.47593" lon="0.47405">
        <ele>132.626</ele>
        <time>2022-03-06T13:40:18Z</time>
      </trkpt>
      <trkpt lat="46.47601" lon="0.47405">
        <ele>132.654</ele>
        <time>2022-03-06T13:40:24Z</time>
      </trkpt>
      <trkpt lat="46.47607" lon="0.47404">
        <ele>132.671</ele>
        <time>2022-03-06T13:40:32Z</time>
      </trkpt>
      <trkpt lat="46.47614" lon="0.47402">
        <ele>132.667</ele>
        <time>2022-03-06T13:40:38Z</time>
      </trkpt>
      <trkpt lat="46.47621" lon="0.47401">
        <ele>132.66</ele>
        <time>2022-03-06T13:40:45Z</time>
      </trkpt>
      <trkpt lat="46.47628" lon="0.474">
        <ele>132.652</ele>
        <time>2022-03-06T13:40:51Z</time>
      </trkpt>
      <trkpt lat="46.47634" lon="0.47398">
        <ele>132.645</ele>
        <time>2022-03-06T13:40:57Z</time>
      </trkpt>
      <trkpt lat="46.47642" lon="0.47397">
        <ele>132.633</ele>
        <time>2022-03-06T13:41:05Z</time>
      </trkpt>
      <trkpt lat="46.47649" lon="0.47397">
        <ele>132.628</ele>
        <time>2022-03-06T13:41:10Z</time>
      </trkpt>
      <trkpt lat="46.47657" lon="0.47396">
        <ele>132.627</ele>
        <time>2022-03-06T13:41:16Z</time>
      </trkpt>
      <trkpt lat="46.47664" lon="0.47395">
        <ele>132.64</ele>
        <time>2022-03-06T13:41:24Z</time>
      </trkpt>
      <trkpt lat="46.47672" lon="0.47394">
        <ele>132.659</ele>
        <time>2022-03-06T13:41:31Z</time>
      </trkpt>
      <trkpt lat="46.47679" lon="0.47394">
        <ele>132.692</ele>
        <time>2022-03-06T13:41:39Z</time>
      </trkpt>
      <trkpt lat="46.47686" lon="0.47393">
        <ele>132.727</ele>
        <time>2022-03-06T13:41:45Z</time>
      </trkpt>
      <trkpt lat="46.47693" lon="0.47392">
        <ele>132.778</ele>
        <time>2022-03-06T13:41:53Z</time>
      </trkpt>
      <trkpt lat="46.477" lon="0.47391">
        <ele>132.826</ele>
        <time>2022-03-06T13:42:00Z</time>
      </trkpt>
      <trkpt lat="46.47706" lon="0.4739">
        <ele>132.879</ele>
        <time>2022-03-06T13:42:07Z</time>
      </trkpt>
      <trkpt lat="46.47713" lon="0.4739">
        <ele>132.938</ele>
        <time>2022-03-06T13:42:14Z</time>
      </trkpt>
      <trkpt lat="46.4772" lon="0.47389">
        <ele>133.002</ele>
        <time>2022-03-06T13:42:21Z</time>
      </trkpt>
      <trkpt lat="46.47727" lon="0.47388">
        <ele>133.057</ele>
        <time>2022-03-06T13:42:27Z</time>
      </trkpt>
      <trkpt lat="46.47734" lon="0.47388">
        <ele>133.119</ele>
        <time>2022-03-06T13:42:34Z</time>
      </trkpt>
      <trkpt lat="46.47741" lon="0.47387">
        <ele>133.184</ele>
        <time>2022-03-06T13:42:41Z</time>
      </trkpt>
      <trkpt lat="46.47748" lon="0.47386">
        <ele>133.253</ele>
        <time>2022-03-06T13:42:49Z</time>
      </trkpt>
      <trkpt lat="46.47755" lon="0.47386">
        <ele>133.316</ele>
        <time>2022-03-06T13:42:57Z</time>
      </trkpt>
      <trkpt lat="46.47761" lon="0.47386">
        <ele>133.361</ele>
        <time>2022-03-06T13:43:03Z</time>
      </trkpt>
      <trkpt lat="46.47769" lon="0.47385">
        <ele>133.403</ele>
        <time>2022-03-06T13:43:08Z</time>
      </trkpt>
      <trkpt lat="46.47776" lon="0.47384">
        <ele>133.449</ele>
        <time>2022-03-06T13:43:14Z</time>
      </trkpt>
      <trkpt lat="46.47783" lon="0.47384">
        <ele>133.492</ele>
        <time>2022-03-06T13:43:20Z</time>
      </trkpt>
      <trkpt lat="46.47789" lon="0.47384">
        <ele>133.544</ele>
        <time>2022-03-06T13:43:27Z</time>
      </trkpt>
      <trkpt lat="46.47796" lon="0.47384">
        <ele>133.596</ele>
        <time>2022-03-06T13:43:34Z</time>
      </trkpt>
      <trkpt lat="46.47804" lon="0.47383">
        <ele>133.659</ele>
        <time>2022-03-06T13:43:42Z</time>
      </trkpt>
      <trkpt lat="46.47811" lon="0.47383">
        <ele>133.713</ele>
        <time>2022-03-06T13:43:48Z</time>
      </trkpt>
      <trkpt lat="46.47817" lon="0.47381">
        <ele>133.77</ele>
        <time>2022-03-06T13:43:54Z</time>
      </trkpt>
      <trkpt lat="46.47825" lon="0.47379">
        <ele>133.849</ele>
        <time>2022-03-06T13:44:03Z</time>
      </trkpt>
      <trkpt lat="46.47831" lon="0.47378">
        <ele>133.897</ele>
        <time>2022-03-06T13:44:09Z</time>
      </trkpt>
      <trkpt lat="46.47839" lon="0.47376">
        <ele>133.946</ele>
        <time>2022-03-06T13:44:16Z</time>
      </trkpt>
      <trkpt lat="46.47845" lon="0.47375">
        <ele>133.99</ele>
        <time>2022-03-06T13:44:23Z</time>
      </trkpt>
      <trkpt lat="46.47852" lon="0.47375">
        <ele>134.023</ele>
        <time>2022-03-06T13:44:29Z</time>
      </trkpt>
      <trkpt lat="46.47859" lon="0.47375">
        <ele>134.063</ele>
        <time>2022-03-06T13:44:37Z</time>
      </trkpt>
      <trkpt lat="46.47865" lon="0.47375">
        <ele>134.092</ele>
        <time>2022-03-06T13:44:44Z</time>
      </trkpt>
      <trkpt lat="46.47872" lon="0.47373">
        <ele>134.117</ele>
        <time>2022-03-06T13:44:52Z</time>
      </trkpt>
      <trkpt lat="46.47879" lon="0.47373">
        <ele>134.184</ele>
        <time>2022-03-06T13:45:22Z</time>
      </trkpt>
      <trkpt lat="46.47885" lon="0.4737">
        <ele>134.222</ele>
        <time>2022-03-06T13:45:28Z</time>
      </trkpt>
      <trkpt lat="46.47891" lon="0.47363">
        <ele>134.272</ele>
        <time>2022-03-06T13:45:36Z</time>
      </trkpt>
      <trkpt lat="46.47895" lon="0.47355">
        <ele>134.317</ele>
        <time>2022-03-06T13:45:44Z</time>
      </trkpt>
      <trkpt lat="46.47903" lon="0.47353">
        <ele>134.359</ele>
        <time>2022-03-06T13:45:52Z</time>
      </trkpt>
      <trkpt lat="46.4791" lon="0.47352">
        <ele>134.401</ele>
        <time>2022-03-06T13:46:01Z</time>
      </trkpt>
      <trkpt lat="46.47916" lon="0.47351">
        <ele>134.428</ele>
        <time>2022-03-06T13:46:08Z</time>
      </trkpt>
      <trkpt lat="46.47923" lon="0.47351">
        <ele>134.448</ele>
        <time>2022-03-06T13:46:14Z</time>
      </trkpt>
      <trkpt lat="46.4793" lon="0.47351">
        <ele>134.476</ele>
        <time>2022-03-06T13:46:22Z</time>
      </trkpt>
      <trkpt lat="46.47937" lon="0.47351">
        <ele>134.507</ele>
        <time>2022-03-06T13:46:30Z</time>
      </trkpt>
      <trkpt lat="46.47943" lon="0.4735">
        <ele>134.54</ele>
        <time>2022-03-06T13:46:37Z</time>
      </trkpt>
      <trkpt lat="46.4795" lon="0.47349">
        <ele>134.577</ele>
        <time>2022-03-06T13:46:44Z</time>
      </trkpt>
      <trkpt lat="46.47957" lon="0.47347">
        <ele>134.614</ele>
        <time>2022-03-06T13:46:51Z</time>
      </trkpt>
      <trkpt lat="46.47964" lon="0.47347">
        <ele>134.648</ele>
        <time>2022-03-06T13:46:58Z</time>
      </trkpt>
      <trkpt lat="46.47971" lon="0.47346">
        <ele>134.681</ele>
        <time>2022-03-06T13:47:05Z</time>
      </trkpt>
      <trkpt lat="46.47979" lon="0.47346">
        <ele>134.719</ele>
        <time>2022-03-06T13:47:13Z</time>
      </trkpt>
      <trkpt lat="46.47985" lon="0.47346">
        <ele>134.752</ele>
        <time>2022-03-06T13:47:20Z</time>
      </trkpt>
      <trkpt lat="46.47993" lon="0.47346">
        <ele>134.791</ele>
        <time>2022-03-06T13:47:27Z</time>
      </trkpt>
      <trkpt lat="46.48" lon="0.47347">
        <ele>134.829</ele>
        <time>2022-03-06T13:47:33Z</time>
      </trkpt>
      <trkpt lat="46.48007" lon="0.47347">
        <ele>134.875</ele>
        <time>2022-03-06T13:47:40Z</time>
      </trkpt>
      <trkpt lat="46.48015" lon="0.47347">
        <ele>134.926</ele>
        <time>2022-03-06T13:47:48Z</time>
      </trkpt>
      <trkpt lat="46.48021" lon="0.47348">
        <ele>134.96</ele>
        <time>2022-03-06T13:47:54Z</time>
      </trkpt>
      <trkpt lat="46.48028" lon="0.4735">
        <ele>134.994</ele>
        <time>2022-03-06T13:48:01Z</time>
      </trkpt>
      <trkpt lat="46.48035" lon="0.47353">
        <ele>135.027</ele>
        <time>2022-03-06T13:48:09Z</time>
      </trkpt>
      <trkpt lat="46.48042" lon="0.47355">
        <ele>135.054</ele>
        <time>2022-03-06T13:48:17Z</time>
      </trkpt>
      <trkpt lat="46.48049" lon="0.47357">
        <ele>135.075</ele>
        <time>2022-03-06T13:48:24Z</time>
      </trkpt>
      <trkpt lat="46.48056" lon="0.47358">
        <ele>135.091</ele>
        <time>2022-03-06T13:48:30Z</time>
      </trkpt>
      <trkpt lat="46.48063" lon="0.4736">
        <ele>135.11</ele>
        <time>2022-03-06T13:48:38Z</time>
      </trkpt>
      <trkpt lat="46.4807" lon="0.47362">
        <ele>135.119</ele>
        <time>2022-03-06T13:48:44Z</time>
      </trkpt>
      <trkpt lat="46.48077" lon="0.47365">
        <ele>135.13</ele>
        <time>2022-03-06T13:48:51Z</time>
      </trkpt>
      <trkpt lat="46.48084" lon="0.47367">
        <ele>135.139</ele>
        <time>2022-03-06T13:48:58Z</time>
      </trkpt>
      <trkpt lat="46.48092" lon="0.47369">
        <ele>135.146</ele>
        <time>2022-03-06T13:49:04Z</time>
      </trkpt>
      <trkpt lat="46.48098" lon="0.47374">
        <ele>135.153</ele>
        <time>2022-03-06T13:49:13Z</time>
      </trkpt>
      <trkpt lat="46.48105" lon="0.47376">
        <ele>135.157</ele>
        <time>2022-03-06T13:49:20Z</time>
      </trkpt>
      <trkpt lat="46.48111" lon="0.4738">
        <ele>135.153</ele>
        <time>2022-03-06T13:49:27Z</time>
      </trkpt>
      <trkpt lat="46.48117" lon="0.47384">
        <ele>135.146</ele>
        <time>2022-03-06T13:49:33Z</time>
      </trkpt>
      <trkpt lat="46.48123" lon="0.47389">
        <ele>135.137</ele>
        <time>2022-03-06T13:49:40Z</time>
      </trkpt>
      <trkpt lat="46.48129" lon="0.47393">
        <ele>135.124</ele>
        <time>2022-03-06T13:49:47Z</time>
      </trkpt>
      <trkpt lat="46.48136" lon="0.47398">
        <ele>135.109</ele>
        <time>2022-03-06T13:49:54Z</time>
      </trkpt>
      <trkpt lat="46.48143" lon="0.474">
        <ele>135.094</ele>
        <time>2022-03-06T13:50:00Z</time>
      </trkpt>
      <trkpt lat="46.4815" lon="0.47402">
        <ele>135.077</ele>
        <time>2022-03-06T13:50:07Z</time>
      </trkpt>
      <trkpt lat="46.48156" lon="0.47405">
        <ele>135.055</ele>
        <time>2022-03-06T13:50:15Z</time>
      </trkpt>
      <trkpt lat="46.48163" lon="0.47406">
        <ele>135.039</ele>
        <time>2022-03-06T13:50:23Z</time>
      </trkpt>
      <trkpt lat="46.4817" lon="0.47409">
        <ele>135.031</ele>
        <time>2022-03-06T13:50:29Z</time>
      </trkpt>
      <trkpt lat="46.48177" lon="0.4741">
        <ele>135.028</ele>
        <time>2022-03-06T13:50:35Z</time>
      </trkpt>
      <trkpt lat="46.48183" lon="0.47411">
        <ele>135.024</ele>
        <time>2022-03-06T13:50:42Z</time>
      </trkpt>
      <trkpt lat="46.4819" lon="0.47412">
        <ele>135.016</ele>
        <time>2022-03-06T13:50:49Z</time>
      </trkpt>
      <trkpt lat="46.48197" lon="0.47414">
        <ele>135.006</ele>
        <time>2022-03-06T13:50:56Z</time>
      </trkpt>
      <trkpt lat="46.48204" lon="0.47415">
        <ele>134.998</ele>
        <time>2022-03-06T13:51:03Z</time>
      </trkpt>
      <trkpt lat="46.48211" lon="0.47417">
        <ele>134.997</ele>
        <time>2022-03-06T13:51:10Z</time>
      </trkpt>
      <trkpt lat="46.48217" lon="0.47419">
        <ele>135.003</ele>
        <time>2022-03-06T13:51:17Z</time>
      </trkpt>
      <trkpt lat="46.48224" lon="0.47421">
        <ele>135.044</ele>
        <time>2022-03-06T13:52:20Z</time>
      </trkpt>
      <trkpt lat="46.48232" lon="0.47422">
        <ele>135.06</ele>
        <time>2022-03-06T13:52:26Z</time>
      </trkpt>
      <trkpt lat="46.48239" lon="0.47423">
        <ele>135.072</ele>
        <time>2022-03-06T13:52:31Z</time>
      </trkpt>
      <trkpt lat="46.48246" lon="0.47424">
        <ele>135.083</ele>
        <time>2022-03-06T13:52:37Z</time>
      </trkpt>
      <trkpt lat="46.48253" lon="0.47426">
        <ele>135.093</ele>
        <time>2022-03-06T13:52:42Z</time>
      </trkpt>
      <trkpt lat="46.4826" lon="0.47429">
        <ele>135.103</ele>
        <time>2022-03-06T13:52:47Z</time>
      </trkpt>
      <trkpt lat="46.48268" lon="0.47431">
        <ele>135.113</ele>
        <time>2022-03-06T13:52:53Z</time>
      </trkpt>
      <trkpt lat="46.48275" lon="0.47434">
        <ele>135.121</ele>
        <time>2022-03-06T13:52:58Z</time>
      </trkpt>
      <trkpt lat="46.48282" lon="0.47435">
        <ele>135.129</ele>
        <time>2022-03-06T13:53:04Z</time>
      </trkpt>
      <trkpt lat="46.48289" lon="0.47437">
        <ele>135.133</ele>
        <time>2022-03-06T13:53:10Z</time>
      </trkpt>
      <trkpt lat="46.48297" lon="0.47439">
        <ele>135.132</ele>
        <time>2022-03-06T13:53:15Z</time>
      </trkpt>
      <trkpt lat="46.48304" lon="0.47441">
        <ele>135.129</ele>
        <time>2022-03-06T13:53:21Z</time>
      </trkpt>
      <trkpt lat="46.48312" lon="0.47442">
        <ele>135.124</ele>
        <time>2022-03-06T13:53:27Z</time>
      </trkpt>
      <trkpt lat="46.4832" lon="0.47445">
        <ele>135.126</ele>
        <time>2022-03-06T13:53:33Z</time>
      </trkpt>
      <trkpt lat="46.48327" lon="0.47447">
        <ele>135.124</ele>
        <time>2022-03-06T13:53:38Z</time>
      </trkpt>
      <trkpt lat="46.48336" lon="0.47448">
        <ele>135.121</ele>
        <time>2022-03-06T13:53:43Z</time>
      </trkpt>
      <trkpt lat="46.48344" lon="0.47449">
        <ele>135.122</ele>
        <time>2022-03-06T13:53:49Z</time>
      </trkpt>
      <trkpt lat="46.48351" lon="0.47449">
        <ele>135.125</ele>
        <time>2022-03-06T13:53:54Z</time>
      </trkpt>
      <trkpt lat="46.48358" lon="0.47449">
        <ele>135.135</ele>
        <time>2022-03-06T13:54:00Z</time>
      </trkpt>
      <trkpt lat="46.48365" lon="0.47448">
        <ele>135.15</ele>
        <time>2022-03-06T13:54:06Z</time>
      </trkpt>
      <trkpt lat="46.48372" lon="0.47446">
        <ele>135.173</ele>
        <time>2022-03-06T13:54:12Z</time>
      </trkpt>
      <trkpt lat="46.48379" lon="0.47443">
        <ele>135.201</ele>
        <time>2022-03-06T13:54:18Z</time>
      </trkpt>
      <trkpt lat="46.48385" lon="0.47438">
        <ele>135.232</ele>
        <time>2022-03-06T13:54:24Z</time>
      </trkpt>
      <trkpt lat="46.4839" lon="0.47433">
        <ele>135.274</ele>
        <time>2022-03-06T13:54:31Z</time>
      </trkpt>
      <trkpt lat="46.48395" lon="0.47427">
        <ele>135.322</ele>
        <time>2022-03-06T13:54:38Z</time>
      </trkpt>
      <trkpt lat="46.48401" lon="0.4742">
        <ele>135.373</ele>
        <time>2022-03-06T13:54:45Z</time>
      </trkpt>
      <trkpt lat="46.48406" lon="0.47414">
        <ele>135.445</ele>
        <time>2022-03-06T13:54:55Z</time>
      </trkpt>
      <trkpt lat="46.4841" lon="0.47406">
        <ele>135.497</ele>
        <time>2022-03-06T13:55:03Z</time>
      </trkpt>
      <trkpt lat="46.48411" lon="0.47396">
        <ele>135.568</ele>
        <time>2022-03-06T13:55:14Z</time>
      </trkpt>
      <trkpt lat="46.48414" lon="0.47387">
        <ele>135.743</ele>
        <time>2022-03-06T13:57:26Z</time>
      </trkpt>
      <trkpt lat="46.48408" lon="0.47387">
        <ele>136.064</ele>
        <time>2022-03-06T14:00:40Z</time>
      </trkpt>
      <trkpt lat="46.48404" lon="0.47378">
        <ele>136.306</ele>
        <time>2022-03-06T14:01:19Z</time>
      </trkpt>
      <trkpt lat="46.484" lon="0.47371">
        <ele>136.384</ele>
        <time>2022-03-06T14:01:26Z</time>
      </trkpt>
      <trkpt lat="46.48396" lon="0.47362">
        <ele>136.489</ele>
        <time>2022-03-06T14:01:36Z</time>
      </trkpt>
      <trkpt lat="46.48392" lon="0.47353">
        <ele>136.554</ele>
        <time>2022-03-06T14:01:43Z</time>
      </trkpt>
      <trkpt lat="46.48388" lon="0.47346">
        <ele>136.61</ele>
        <time>2022-03-06T14:01:50Z</time>
      </trkpt>
      <trkpt lat="46.48384" lon="0.47337">
        <ele>136.673</ele>
        <time>2022-03-06T14:01:59Z</time>
      </trkpt>
      <trkpt lat="46.48382" lon="0.47327">
        <ele>136.725</ele>
        <time>2022-03-06T14:02:08Z</time>
      </trkpt>
      <trkpt lat="46.48379" lon="0.47318">
        <ele>136.765</ele>
        <time>2022-03-06T14:02:16Z</time>
      </trkpt>
      <trkpt lat="46.48376" lon="0.47308">
        <ele>136.804</ele>
        <time>2022-03-06T14:02:24Z</time>
      </trkpt>
      <trkpt lat="46.48373" lon="0.47299">
        <ele>136.844</ele>
        <time>2022-03-06T14:02:33Z</time>
      </trkpt>
      <trkpt lat="46.48371" lon="0.47289">
        <ele>136.871</ele>
        <time>2022-03-06T14:02:40Z</time>
      </trkpt>
      <trkpt lat="46.4837" lon="0.47279">
        <ele>136.893</ele>
        <time>2022-03-06T14:02:47Z</time>
      </trkpt>
      <trkpt lat="46.48369" lon="0.47269">
        <ele>136.915</ele>
        <time>2022-03-06T14:02:54Z</time>
      </trkpt>
      <trkpt lat="46.48369" lon="0.47258">
        <ele>136.943</ele>
        <time>2022-03-06T14:03:03Z</time>
      </trkpt>
      <trkpt lat="46.48369" lon="0.47247">
        <ele>136.966</ele>
        <time>2022-03-06T14:03:11Z</time>
      </trkpt>
      <trkpt lat="46.48369" lon="0.47238">
        <ele>136.986</ele>
        <time>2022-03-06T14:03:18Z</time>
      </trkpt>
      <trkpt lat="46.48369" lon="0.47228">
        <ele>137.009</ele>
        <time>2022-03-06T14:03:25Z</time>
      </trkpt>
      <trkpt lat="46.48368" lon="0.47219">
        <ele>137.034</ele>
        <time>2022-03-06T14:03:32Z</time>
      </trkpt>
      <trkpt lat="46.48369" lon="0.47209">
        <ele>137.064</ele>
        <time>2022-03-06T14:03:40Z</time>
      </trkpt>
      <trkpt lat="46.48369" lon="0.47199">
        <ele>137.09</ele>
        <time>2022-03-06T14:03:47Z</time>
      </trkpt>
      <trkpt lat="46.48369" lon="0.4719">
        <ele>137.115</ele>
        <time>2022-03-06T14:03:54Z</time>
      </trkpt>
      <trkpt lat="46.48368" lon="0.4718">
        <ele>137.138</ele>
        <time>2022-03-06T14:04:01Z</time>
      </trkpt>
      <trkpt lat="46.48368" lon="0.47171">
        <ele>137.157</ele>
        <time>2022-03-06T14:04:07Z</time>
      </trkpt>
      <trkpt lat="46.48367" lon="0.4716">
        <ele>137.181</ele>
        <time>2022-03-06T14:04:15Z</time>
      </trkpt>
      <trkpt lat="46.48367" lon="0.4715">
        <ele>137.203</ele>
        <time>2022-03-06T14:04:22Z</time>
      </trkpt>
      <trkpt lat="46.48367" lon="0.47141">
        <ele>137.226</ele>
        <time>2022-03-06T14:04:29Z</time>
      </trkpt>
      <trkpt lat="46.48366" lon="0.47131">
        <ele>137.248</ele>
        <time>2022-03-06T14:04:36Z</time>
      </trkpt>
      <trkpt lat="46.48366" lon="0.47122">
        <ele>137.269</ele>
        <time>2022-03-06T14:04:43Z</time>
      </trkpt>
      <trkpt lat="46.48364" lon="0.47112">
        <ele>137.292</ele>
        <time>2022-03-06T14:04:51Z</time>
      </trkpt>
      <trkpt lat="46.48363" lon="0.47102">
        <ele>137.31</ele>
        <time>2022-03-06T14:04:58Z</time>
      </trkpt>
      <trkpt lat="46.48362" lon="0.47092">
        <ele>137.326</ele>
        <time>2022-03-06T14:05:05Z</time>
      </trkpt>
      <trkpt lat="46.48361" lon="0.47082">
        <ele>137.341</ele>
        <time>2022-03-06T14:05:12Z</time>
      </trkpt>
      <trkpt lat="46.4836" lon="0.47073">
        <ele>137.356</ele>
        <time>2022-03-06T14:05:19Z</time>
      </trkpt>
      <trkpt lat="46.48359" lon="0.47062">
        <ele>137.371</ele>
        <time>2022-03-06T14:05:27Z</time>
      </trkpt>
      <trkpt lat="46.48358" lon="0.47052">
        <ele>137.381</ele>
        <time>2022-03-06T14:05:34Z</time>
      </trkpt>
      <trkpt lat="46.48358" lon="0.47041">
        <ele>137.391</ele>
        <time>2022-03-06T14:05:42Z</time>
      </trkpt>
      <trkpt lat="46.48358" lon="0.47031">
        <ele>137.4</ele>
        <time>2022-03-06T14:05:50Z</time>
      </trkpt>
      <trkpt lat="46.48358" lon="0.47021">
        <ele>137.408</ele>
        <time>2022-03-06T14:05:57Z</time>
      </trkpt>
      <trkpt lat="46.48357" lon="0.47011">
        <ele>137.415</ele>
        <time>2022-03-06T14:06:04Z</time>
      </trkpt>
      <trkpt lat="46.48357" lon="0.47">
        <ele>137.423</ele>
        <time>2022-03-06T14:06:12Z</time>
      </trkpt>
      <trkpt lat="46.48356" lon="0.4699">
        <ele>137.429</ele>
        <time>2022-03-06T14:06:19Z</time>
      </trkpt>
      <trkpt lat="46.48356" lon="0.46981">
        <ele>137.432</ele>
        <time>2022-03-06T14:06:26Z</time>
      </trkpt>
      <trkpt lat="46.48356" lon="0.46971">
        <ele>137.434</ele>
        <time>2022-03-06T14:06:32Z</time>
      </trkpt>
      <trkpt lat="46.48357" lon="0.4696">
        <ele>137.438</ele>
        <time>2022-03-06T14:06:40Z</time>
      </trkpt>
      <trkpt lat="46.48357" lon="0.4695">
        <ele>137.44</ele>
        <time>2022-03-06T14:06:48Z</time>
      </trkpt>
      <trkpt lat="46.48357" lon="0.4694">
        <ele>137.438</ele>
        <time>2022-03-06T14:06:56Z</time>
      </trkpt>
      <trkpt lat="46.48358" lon="0.46931">
        <ele>137.434</ele>
        <time>2022-03-06T14:07:03Z</time>
      </trkpt>
      <trkpt lat="46.48358" lon="0.46921">
        <ele>137.428</ele>
        <time>2022-03-06T14:07:10Z</time>
      </trkpt>
      <trkpt lat="46.48358" lon="0.46911">
        <ele>137.417</ele>
        <time>2022-03-06T14:07:17Z</time>
      </trkpt>
      <trkpt lat="46.4836" lon="0.46902">
        <ele>137.402</ele>
        <time>2022-03-06T14:07:24Z</time>
      </trkpt>
      <trkpt lat="46.48361" lon="0.46892">
        <ele>137.382</ele>
        <time>2022-03-06T14:07:31Z</time>
      </trkpt>
      <trkpt lat="46.48362" lon="0.46883">
        <ele>137.36</ele>
        <time>2022-03-06T14:07:38Z</time>
      </trkpt>
      <trkpt lat="46.48362" lon="0.46872">
        <ele>137.339</ele>
        <time>2022-03-06T14:07:45Z</time>
      </trkpt>
      <trkpt lat="46.48363" lon="0.46862">
        <ele>137.319</ele>
        <time>2022-03-06T14:07:52Z</time>
      </trkpt>
      <trkpt lat="46.48364" lon="0.46852">
        <ele>137.296</ele>
        <time>2022-03-06T14:08:00Z</time>
      </trkpt>
      <trkpt lat="46.48365" lon="0.46842">
        <ele>137.272</ele>
        <time>2022-03-06T14:08:08Z</time>
      </trkpt>
      <trkpt lat="46.48366" lon="0.46832">
        <ele>137.248</ele>
        <time>2022-03-06T14:08:16Z</time>
      </trkpt>
      <trkpt lat="46.48368" lon="0.46822">
        <ele>137.234</ele>
        <time>2022-03-06T14:08:23Z</time>
      </trkpt>
      <trkpt lat="46.48369" lon="0.46812">
        <ele>137.223</ele>
        <time>2022-03-06T14:08:31Z</time>
      </trkpt>
      <trkpt lat="46.48371" lon="0.46803">
        <ele>137.22</ele>
        <time>2022-03-06T14:08:38Z</time>
      </trkpt>
      <trkpt lat="46.48372" lon="0.46793">
        <ele>137.222</ele>
        <time>2022-03-06T14:08:45Z</time>
      </trkpt>
      <trkpt lat="46.48373" lon="0.46782">
        <ele>137.232</ele>
        <time>2022-03-06T14:08:53Z</time>
      </trkpt>
      <trkpt lat="46.48374" lon="0.46772">
        <ele>137.249</ele>
        <time>2022-03-06T14:09:01Z</time>
      </trkpt>
      <trkpt lat="46.48376" lon="0.46763">
        <ele>137.275</ele>
        <time>2022-03-06T14:09:10Z</time>
      </trkpt>
      <trkpt lat="46.48377" lon="0.46753">
        <ele>137.303</ele>
        <time>2022-03-06T14:09:19Z</time>
      </trkpt>
      <trkpt lat="46.48378" lon="0.46742">
        <ele>137.329</ele>
        <time>2022-03-06T14:09:27Z</time>
      </trkpt>
      <trkpt lat="46.48379" lon="0.46733">
        <ele>137.354</ele>
        <time>2022-03-06T14:09:35Z</time>
      </trkpt>
      <trkpt lat="46.4838" lon="0.46723">
        <ele>137.375</ele>
        <time>2022-03-06T14:09:42Z</time>
      </trkpt>
      <trkpt lat="46.4838" lon="0.46714">
        <ele>137.397</ele>
        <time>2022-03-06T14:09:49Z</time>
      </trkpt>
      <trkpt lat="46.48382" lon="0.46703">
        <ele>137.424</ele>
        <time>2022-03-06T14:09:57Z</time>
      </trkpt>
      <trkpt lat="46.48382" lon="0.46693">
        <ele>137.449</ele>
        <time>2022-03-06T14:10:04Z</time>
      </trkpt>
      <trkpt lat="46.48383" lon="0.46684">
        <ele>137.473</ele>
        <time>2022-03-06T14:10:11Z</time>
      </trkpt>
      <trkpt lat="46.48384" lon="0.46674">
        <ele>137.498</ele>
        <time>2022-03-06T14:10:19Z</time>
      </trkpt>
      <trkpt lat="46.48389" lon="0.46668">
        <ele>137.481</ele>
        <time>2022-03-06T14:11:20Z</time>
      </trkpt>
      <trkpt lat="46.48388" lon="0.46658">
        <ele>137.456</ele>
        <time>2022-03-06T14:11:27Z</time>
      </trkpt>
      <trkpt lat="46.48385" lon="0.46649">
        <ele>137.418</ele>
        <time>2022-03-06T14:11:36Z</time>
      </trkpt>
      <trkpt lat="46.48382" lon="0.4664">
        <ele>137.383</ele>
        <time>2022-03-06T14:11:44Z</time>
      </trkpt>
      <trkpt lat="46.48378" lon="0.46631">
        <ele>137.356</ele>
        <time>2022-03-06T14:11:51Z</time>
      </trkpt>
      <trkpt lat="46.48375" lon="0.46623">
        <ele>137.333</ele>
        <time>2022-03-06T14:11:58Z</time>
      </trkpt>
      <trkpt lat="46.48373" lon="0.46613">
        <ele>137.311</ele>
        <time>2022-03-06T14:12:06Z</time>
      </trkpt>
      <trkpt lat="46.4837" lon="0.46604">
        <ele>137.294</ele>
        <time>2022-03-06T14:12:13Z</time>
      </trkpt>
      <trkpt lat="46.48367" lon="0.46594">
        <ele>137.279</ele>
        <time>2022-03-06T14:12:20Z</time>
      </trkpt>
      <trkpt lat="46.48365" lon="0.46584">
        <ele>137.265</ele>
        <time>2022-03-06T14:12:28Z</time>
      </trkpt>
      <trkpt lat="46.48362" lon="0.46575">
        <ele>137.253</ele>
        <time>2022-03-06T14:12:35Z</time>
      </trkpt>
      <trkpt lat="46.48359" lon="0.46566">
        <ele>137.244</ele>
        <time>2022-03-06T14:12:42Z</time>
      </trkpt>
      <trkpt lat="46.48356" lon="0.46557">
        <ele>137.239</ele>
        <time>2022-03-06T14:12:48Z</time>
      </trkpt>
      <trkpt lat="46.48354" lon="0.46548">
        <ele>137.231</ele>
        <time>2022-03-06T14:12:56Z</time>
      </trkpt>
      <trkpt lat="46.48352" lon="0.46538">
        <ele>137.224</ele>
        <time>2022-03-06T14:13:03Z</time>
      </trkpt>
      <trkpt lat="46.4835" lon="0.46528">
        <ele>137.225</ele>
        <time>2022-03-06T14:13:12Z</time>
      </trkpt>
      <trkpt lat="46.48347" lon="0.46519">
        <ele>137.233</ele>
        <time>2022-03-06T14:13:38Z</time>
      </trkpt>
      <trkpt lat="46.48344" lon="0.46509">
        <ele>137.227</ele>
        <time>2022-03-06T14:13:45Z</time>
      </trkpt>
      <trkpt lat="46.48342" lon="0.46499">
        <ele>137.221</ele>
        <time>2022-03-06T14:13:52Z</time>
      </trkpt>
      <trkpt lat="46.48338" lon="0.4649">
        <ele>137.214</ele>
        <time>2022-03-06T14:13:59Z</time>
      </trkpt>
      <trkpt lat="46.48335" lon="0.4648">
        <ele>137.211</ele>
        <time>2022-03-06T14:14:05Z</time>
      </trkpt>
      <trkpt lat="46.48332" lon="0.46471">
        <ele>137.213</ele>
        <time>2022-03-06T14:14:11Z</time>
      </trkpt>
      <trkpt lat="46.4833" lon="0.46462">
        <ele>137.22</ele>
        <time>2022-03-06T14:14:19Z</time>
      </trkpt>
      <trkpt lat="46.48327" lon="0.46453">
        <ele>137.229</ele>
        <time>2022-03-06T14:14:25Z</time>
      </trkpt>
      <trkpt lat="46.48325" lon="0.46444">
        <ele>137.234</ele>
        <time>2022-03-06T14:14:30Z</time>
      </trkpt>
      <trkpt lat="46.48323" lon="0.46433">
        <ele>137.234</ele>
        <time>2022-03-06T14:14:35Z</time>
      </trkpt>
      <trkpt lat="46.4832" lon="0.46423">
        <ele>137.232</ele>
        <time>2022-03-06T14:14:41Z</time>
      </trkpt>
      <trkpt lat="46.48318" lon="0.46413">
        <ele>137.232</ele>
        <time>2022-03-06T14:14:49Z</time>
      </trkpt>
      <trkpt lat="46.48315" lon="0.46405">
        <ele>137.232</ele>
        <time>2022-03-06T14:14:56Z</time>
      </trkpt>
      <trkpt lat="46.48314" lon="0.46395">
        <ele>137.231</ele>
        <time>2022-03-06T14:15:02Z</time>
      </trkpt>
      <trkpt lat="46.48313" lon="0.46385">
        <ele>137.229</ele>
        <time>2022-03-06T14:15:09Z</time>
      </trkpt>
      <trkpt lat="46.48313" lon="0.46374">
        <ele>137.23</ele>
        <time>2022-03-06T14:15:17Z</time>
      </trkpt>
      <trkpt lat="46.48312" lon="0.46364">
        <ele>137.235</ele>
        <time>2022-03-06T14:15:24Z</time>
      </trkpt>
      <trkpt lat="46.48311" lon="0.46354">
        <ele>137.245</ele>
        <time>2022-03-06T14:15:31Z</time>
      </trkpt>
      <trkpt lat="46.4831" lon="0.46345">
        <ele>137.259</ele>
        <time>2022-03-06T14:15:38Z</time>
      </trkpt>
      <trkpt lat="46.48309" lon="0.46334">
        <ele>137.279</ele>
        <time>2022-03-06T14:15:46Z</time>
      </trkpt>
      <trkpt lat="46.4831" lon="0.46325">
        <ele>137.301</ele>
        <time>2022-03-06T14:15:53Z</time>
      </trkpt>
      <trkpt lat="46.48309" lon="0.46315">
        <ele>137.327</ele>
        <time>2022-03-06T14:16:01Z</time>
      </trkpt>
      <trkpt lat="46.48308" lon="0.46304">
        <ele>137.346</ele>
        <time>2022-03-06T14:16:07Z</time>
      </trkpt>
      <trkpt lat="46.48306" lon="0.46293">
        <ele>137.364</ele>
        <time>2022-03-06T14:16:13Z</time>
      </trkpt>
      <trkpt lat="46.48305" lon="0.46284">
        <ele>137.384</ele>
        <time>2022-03-06T14:16:20Z</time>
      </trkpt>
      <trkpt lat="46.48304" lon="0.46274">
        <ele>137.405</ele>
        <time>2022-03-06T14:16:27Z</time>
      </trkpt>
      <trkpt lat="46.48304" lon="0.46265">
        <ele>137.43</ele>
        <time>2022-03-06T14:16:35Z</time>
      </trkpt>
      <trkpt lat="46.48302" lon="0.46255">
        <ele>137.458</ele>
        <time>2022-03-06T14:16:44Z</time>
      </trkpt>
      <trkpt lat="46.483" lon="0.46245">
        <ele>137.483</ele>
        <time>2022-03-06T14:16:52Z</time>
      </trkpt>
      <trkpt lat="46.48299" lon="0.46235">
        <ele>137.502</ele>
        <time>2022-03-06T14:16:59Z</time>
      </trkpt>
      <trkpt lat="46.48304" lon="0.46229">
        <ele>137.541</ele>
        <time>2022-03-06T14:17:25Z</time>
      </trkpt>
      <trkpt lat="46.48311" lon="0.4623">
        <ele>137.567</ele>
        <time>2022-03-06T14:17:35Z</time>
      </trkpt>
      <trkpt lat="46.48318" lon="0.46232">
        <ele>137.58</ele>
        <time>2022-03-06T14:17:46Z</time>
      </trkpt>
      <trkpt lat="46.48325" lon="0.46234">
        <ele>137.576</ele>
        <time>2022-03-06T14:17:56Z</time>
      </trkpt>
      <trkpt lat="46.48332" lon="0.46236">
        <ele>137.559</ele>
        <time>2022-03-06T14:18:05Z</time>
      </trkpt>
      <trkpt lat="46.48339" lon="0.46238">
        <ele>137.532</ele>
        <time>2022-03-06T14:18:14Z</time>
      </trkpt>
      <trkpt lat="46.48345" lon="0.4624">
        <ele>137.505</ele>
        <time>2022-03-06T14:18:22Z</time>
      </trkpt>
      <trkpt lat="46.48352" lon="0.46242">
        <ele>137.474</ele>
        <time>2022-03-06T14:18:31Z</time>
      </trkpt>
      <trkpt lat="46.48359" lon="0.46245">
        <ele>137.444</ele>
        <time>2022-03-06T14:18:39Z</time>
      </trkpt>
      <trkpt lat="46.48366" lon="0.46248">
        <ele>137.418</ele>
        <time>2022-03-06T14:18:46Z</time>
      </trkpt>
      <trkpt lat="46.48372" lon="0.46251">
        <ele>137.38</ele>
        <time>2022-03-06T14:18:55Z</time>
      </trkpt>
      <trkpt lat="46.48379" lon="0.46252">
        <ele>137.348</ele>
        <time>2022-03-06T14:19:03Z</time>
      </trkpt>
      <trkpt lat="46.48386" lon="0.46254">
        <ele>137.309</ele>
        <time>2022-03-06T14:19:12Z</time>
      </trkpt>
      <trkpt lat="46.48393" lon="0.46255">
        <ele>137.271</ele>
        <time>2022-03-06T14:19:20Z</time>
      </trkpt>
      <trkpt lat="46.48399" lon="0.46257">
        <ele>137.234</ele>
        <time>2022-03-06T14:19:27Z</time>
      </trkpt>
      <trkpt lat="46.48406" lon="0.46259">
        <ele>137.194</ele>
        <time>2022-03-06T14:19:34Z</time>
      </trkpt>
      <trkpt lat="46.48413" lon="0.46262">
        <ele>137.148</ele>
        <time>2022-03-06T14:19:42Z</time>
      </trkpt>
      <trkpt lat="46.4842" lon="0.46264">
        <ele>137.101</ele>
        <time>2022-03-06T14:19:50Z</time>
      </trkpt>
      <trkpt lat="46.48426" lon="0.46269">
        <ele>137.048</ele>
        <time>2022-03-06T14:19:59Z</time>
      </trkpt>
      <trkpt lat="46.48433" lon="0.46273">
        <ele>136.998</ele>
        <time>2022-03-06T14:20:08Z</time>
      </trkpt>
      <trkpt lat="46.4844" lon="0.46271">
        <ele>136.971</ele>
        <time>2022-03-06T14:20:13Z</time>
      </trkpt>
      <trkpt lat="46.48447" lon="0.46273">
        <ele>136.934</ele>
        <time>2022-03-06T14:20:20Z</time>
      </trkpt>
      <trkpt lat="46.48454" lon="0.46274">
        <ele>136.901</ele>
        <time>2022-03-06T14:20:27Z</time>
      </trkpt>
      <trkpt lat="46.4846" lon="0.46276">
        <ele>136.872</ele>
        <time>2022-03-06T14:20:35Z</time>
      </trkpt>
      <trkpt lat="46.48468" lon="0.46278">
        <ele>136.846</ele>
        <time>2022-03-06T14:20:43Z</time>
      </trkpt>
      <trkpt lat="46.48474" lon="0.46279">
        <ele>136.832</ele>
        <time>2022-03-06T14:20:50Z</time>
      </trkpt>
      <trkpt lat="46.48481" lon="0.4628">
        <ele>136.822</ele>
        <time>2022-03-06T14:20:57Z</time>
      </trkpt>
      <trkpt lat="46.48487" lon="0.46281">
        <ele>136.813</ele>
        <time>2022-03-06T14:21:04Z</time>
      </trkpt>
      <trkpt lat="46.48494" lon="0.46282">
        <ele>136.802</ele>
        <time>2022-03-06T14:21:11Z</time>
      </trkpt>
      <trkpt lat="46.48502" lon="0.46283">
        <ele>136.779</ele>
        <time>2022-03-06T14:21:20Z</time>
      </trkpt>
      <trkpt lat="46.48508" lon="0.46284">
        <ele>136.753</ele>
        <time>2022-03-06T14:21:28Z</time>
      </trkpt>
      <trkpt lat="46.48515" lon="0.46285">
        <ele>136.726</ele>
        <time>2022-03-06T14:21:35Z</time>
      </trkpt>
      <trkpt lat="46.48522" lon="0.46286">
        <ele>136.692</ele>
        <time>2022-03-06T14:21:43Z</time>
      </trkpt>
      <trkpt lat="46.48529" lon="0.46287">
        <ele>136.66</ele>
        <time>2022-03-06T14:21:51Z</time>
      </trkpt>
      <trkpt lat="46.48536" lon="0.46289">
        <ele>136.633</ele>
        <time>2022-03-06T14:21:58Z</time>
      </trkpt>
      <trkpt lat="46.48543" lon="0.4629">
        <ele>136.611</ele>
        <time>2022-03-06T14:22:04Z</time>
      </trkpt>
      <trkpt lat="46.48549" lon="0.46291">
        <ele>136.588</ele>
        <time>2022-03-06T14:22:10Z</time>
      </trkpt>
      <trkpt lat="46.48556" lon="0.46293">
        <ele>136.564</ele>
        <time>2022-03-06T14:22:17Z</time>
      </trkpt>
      <trkpt lat="46.48563" lon="0.46296">
        <ele>136.54</ele>
        <time>2022-03-06T14:22:25Z</time>
      </trkpt>
      <trkpt lat="46.4857" lon="0.46298">
        <ele>136.522</ele>
        <time>2022-03-06T14:22:32Z</time>
      </trkpt>
      <trkpt lat="46.48577" lon="0.463">
        <ele>136.507</ele>
        <time>2022-03-06T14:22:38Z</time>
      </trkpt>
      <trkpt lat="46.48583" lon="0.46303">
        <ele>136.491</ele>
        <time>2022-03-06T14:22:45Z</time>
      </trkpt>
      <trkpt lat="46.4859" lon="0.46305">
        <ele>136.474</ele>
        <time>2022-03-06T14:22:52Z</time>
      </trkpt>
      <trkpt lat="46.48596" lon="0.46309">
        <ele>136.458</ele>
        <time>2022-03-06T14:22:59Z</time>
      </trkpt>
      <trkpt lat="46.48602" lon="0.46313">
        <ele>136.442</ele>
        <time>2022-03-06T14:23:06Z</time>
      </trkpt>
      <trkpt lat="46.48609" lon="0.46317">
        <ele>136.427</ele>
        <time>2022-03-06T14:23:14Z</time>
      </trkpt>
      <trkpt lat="46.48616" lon="0.46321">
        <ele>136.417</ele>
        <time>2022-03-06T14:23:22Z</time>
      </trkpt>
      <trkpt lat="46.48622" lon="0.46325">
        <ele>136.415</ele>
        <time>2022-03-06T14:23:29Z</time>
      </trkpt>
      <trkpt lat="46.48629" lon="0.46331">
        <ele>136.422</ele>
        <time>2022-03-06T14:23:36Z</time>
      </trkpt>
      <trkpt lat="46.48634" lon="0.46337">
        <ele>136.435</ele>
        <time>2022-03-06T14:23:44Z</time>
      </trkpt>
      <trkpt lat="46.48639" lon="0.46344">
        <ele>136.448</ele>
        <time>2022-03-06T14:23:50Z</time>
      </trkpt>
      <trkpt lat="46.48645" lon="0.46349">
        <ele>136.465</ele>
        <time>2022-03-06T14:23:59Z</time>
      </trkpt>
      <trkpt lat="46.48651" lon="0.46353">
        <ele>136.466</ele>
        <time>2022-03-06T14:24:08Z</time>
      </trkpt>
      <trkpt lat="46.48655" lon="0.46361">
        <ele>136.456</ele>
        <time>2022-03-06T14:24:15Z</time>
      </trkpt>
      <trkpt lat="46.48661" lon="0.46367">
        <ele>136.445</ele>
        <time>2022-03-06T14:24:22Z</time>
      </trkpt>
      <trkpt lat="46.48666" lon="0.46372">
        <ele>136.435</ele>
        <time>2022-03-06T14:24:29Z</time>
      </trkpt>
      <trkpt lat="46.48673" lon="0.46377">
        <ele>136.426</ele>
        <time>2022-03-06T14:24:37Z</time>
      </trkpt>
      <trkpt lat="46.48678" lon="0.46383">
        <ele>136.426</ele>
        <time>2022-03-06T14:24:45Z</time>
      </trkpt>
      <trkpt lat="46.48685" lon="0.46389">
        <ele>136.435</ele>
        <time>2022-03-06T14:24:53Z</time>
      </trkpt>
      <trkpt lat="46.4869" lon="0.46394">
        <ele>136.446</ele>
        <time>2022-03-06T14:25:01Z</time>
      </trkpt>
      <trkpt lat="46.48696" lon="0.464">
        <ele>136.453</ele>
        <time>2022-03-06T14:25:09Z</time>
      </trkpt>
      <trkpt lat="46.48703" lon="0.46404">
        <ele>136.459</ele>
        <time>2022-03-06T14:25:17Z</time>
      </trkpt>
      <trkpt lat="46.48709" lon="0.46407">
        <ele>136.466</ele>
        <time>2022-03-06T14:25:23Z</time>
      </trkpt>
      <trkpt lat="46.48716" lon="0.4641">
        <ele>136.48</ele>
        <time>2022-03-06T14:25:29Z</time>
      </trkpt>
      <trkpt lat="46.48722" lon="0.46414">
        <ele>136.5</ele>
        <time>2022-03-06T14:25:36Z</time>
      </trkpt>
      <trkpt lat="46.48727" lon="0.46421">
        <ele>136.52</ele>
        <time>2022-03-06T14:25:43Z</time>
      </trkpt>
      <trkpt lat="46.48733" lon="0.46427">
        <ele>136.545</ele>
        <time>2022-03-06T14:25:51Z</time>
      </trkpt>
      <trkpt lat="46.48738" lon="0.46435">
        <ele>136.577</ele>
        <time>2022-03-06T14:25:59Z</time>
      </trkpt>
      <trkpt lat="46.48743" lon="0.46441">
        <ele>136.615</ele>
        <time>2022-03-06T14:26:06Z</time>
      </trkpt>
      <trkpt lat="46.48749" lon="0.46446">
        <ele>136.664</ele>
        <time>2022-03-06T14:26:15Z</time>
      </trkpt>
      <trkpt lat="46.48754" lon="0.46453">
        <ele>136.708</ele>
        <time>2022-03-06T14:26:22Z</time>
      </trkpt>
      <trkpt lat="46.4876" lon="0.46457">
        <ele>136.75</ele>
        <time>2022-03-06T14:26:28Z</time>
      </trkpt>
      <trkpt lat="46.48767" lon="0.46463">
        <ele>136.799</ele>
        <time>2022-03-06T14:26:35Z</time>
      </trkpt>
      <trkpt lat="46.48772" lon="0.4647">
        <ele>136.845</ele>
        <time>2022-03-06T14:26:41Z</time>
      </trkpt>
      <trkpt lat="46.48778" lon="0.46477">
        <ele>136.904</ele>
        <time>2022-03-06T14:26:48Z</time>
      </trkpt>
      <trkpt lat="46.48784" lon="0.46481">
        <ele>136.965</ele>
        <time>2022-03-06T14:26:56Z</time>
      </trkpt>
      <trkpt lat="46.48791" lon="0.46488">
        <ele>137.009</ele>
        <time>2022-03-06T14:27:03Z</time>
      </trkpt>
      <trkpt lat="46.48795" lon="0.46496">
        <ele>137.058</ele>
        <time>2022-03-06T14:27:10Z</time>
      </trkpt>
      <trkpt lat="46.48801" lon="0.46503">
        <ele>137.127</ele>
        <time>2022-03-06T14:27:18Z</time>
      </trkpt>
      <trkpt lat="46.48806" lon="0.46509">
        <ele>137.193</ele>
        <time>2022-03-06T14:27:25Z</time>
      </trkpt>
      <trkpt lat="46.4881" lon="0.46517">
        <ele>137.248</ele>
        <time>2022-03-06T14:27:32Z</time>
      </trkpt>
      <trkpt lat="46.48815" lon="0.46525">
        <ele>137.295</ele>
        <time>2022-03-06T14:27:39Z</time>
      </trkpt>
      <trkpt lat="46.4882" lon="0.46533">
        <ele>137.342</ele>
        <time>2022-03-06T14:27:46Z</time>
      </trkpt>
      <trkpt lat="46.48824" lon="0.4654">
        <ele>137.385</ele>
        <time>2022-03-06T14:27:53Z</time>
      </trkpt>
      <trkpt lat="46.4883" lon="0.46545">
        <ele>137.42</ele>
        <time>2022-03-06T14:27:59Z</time>
      </trkpt>
      <trkpt lat="46.48836" lon="0.46551">
        <ele>137.459</ele>
        <time>2022-03-06T14:28:06Z</time>
      </trkpt>
      <trkpt lat="46.48842" lon="0.46554">
        <ele>137.486</ele>
        <time>2022-03-06T14:28:13Z</time>
      </trkpt>
      <trkpt lat="46.48849" lon="0.46549">
        <ele>137.504</ele>
        <time>2022-03-06T14:28:20Z</time>
      </trkpt>
      <trkpt lat="46.48855" lon="0.46542">
        <ele>137.515</ele>
        <time>2022-03-06T14:28:25Z</time>
      </trkpt>
      <trkpt lat="46.4886" lon="0.46534">
        <ele>137.544</ele>
        <time>2022-03-06T14:28:32Z</time>
      </trkpt>
      <trkpt lat="46.48865" lon="0.46527">
        <ele>137.576</ele>
        <time>2022-03-06T14:28:39Z</time>
      </trkpt>
      <trkpt lat="46.4887" lon="0.4652">
        <ele>137.606</ele>
        <time>2022-03-06T14:28:45Z</time>
      </trkpt>
      <trkpt lat="46.48874" lon="0.46512">
        <ele>137.643</ele>
        <time>2022-03-06T14:28:52Z</time>
      </trkpt>
      <trkpt lat="46.48878" lon="0.46504">
        <ele>137.683</ele>
        <time>2022-03-06T14:28:59Z</time>
      </trkpt>
      <trkpt lat="46.48881" lon="0.46495">
        <ele>137.718</ele>
        <time>2022-03-06T14:29:06Z</time>
      </trkpt>
      <trkpt lat="46.48884" lon="0.46486">
        <ele>137.751</ele>
        <time>2022-03-06T14:29:13Z</time>
      </trkpt>
      <trkpt lat="46.48889" lon="0.46478">
        <ele>137.788</ele>
        <time>2022-03-06T14:29:21Z</time>
      </trkpt>
      <trkpt lat="46.48892" lon="0.46469">
        <ele>137.826</ele>
        <time>2022-03-06T14:29:28Z</time>
      </trkpt>
      <trkpt lat="46.48896" lon="0.46461">
        <ele>137.861</ele>
        <time>2022-03-06T14:29:35Z</time>
      </trkpt>
      <trkpt lat="46.489" lon="0.46452">
        <ele>137.893</ele>
        <time>2022-03-06T14:29:42Z</time>
      </trkpt>
      <trkpt lat="46.48905" lon="0.46444">
        <ele>137.925</ele>
        <time>2022-03-06T14:29:48Z</time>
      </trkpt>
      <trkpt lat="46.48909" lon="0.46436">
        <ele>137.972</ele>
        <time>2022-03-06T14:29:56Z</time>
      </trkpt>
      <trkpt lat="46.48913" lon="0.46429">
        <ele>138.02</ele>
        <time>2022-03-06T14:30:04Z</time>
      </trkpt>
      <trkpt lat="46.48918" lon="0.46422">
        <ele>138.073</ele>
        <time>2022-03-06T14:30:12Z</time>
      </trkpt>
      <trkpt lat="46.48922" lon="0.46415">
        <ele>138.118</ele>
        <time>2022-03-06T14:30:19Z</time>
      </trkpt>
      <trkpt lat="46.48927" lon="0.46406">
        <ele>138.167</ele>
        <time>2022-03-06T14:30:27Z</time>
      </trkpt>
      <trkpt lat="46.48931" lon="0.46399">
        <ele>138.236</ele>
        <time>2022-03-06T14:30:47Z</time>
      </trkpt>
      <trkpt lat="46.48933" lon="0.46389">
        <ele>138.284</ele>
        <time>2022-03-06T14:30:55Z</time>
      </trkpt>
      <trkpt lat="46.48933" lon="0.46379">
        <ele>138.316</ele>
        <time>2022-03-06T14:31:01Z</time>
      </trkpt>
      <trkpt lat="46.48935" lon="0.46369">
        <ele>138.349</ele>
        <time>2022-03-06T14:31:08Z</time>
      </trkpt>
      <trkpt lat="46.48937" lon="0.46359">
        <ele>138.381</ele>
        <time>2022-03-06T14:31:15Z</time>
      </trkpt>
      <trkpt lat="46.4894" lon="0.4635">
        <ele>138.407</ele>
        <time>2022-03-06T14:31:21Z</time>
      </trkpt>
      <trkpt lat="46.48944" lon="0.46342">
        <ele>138.442</ele>
        <time>2022-03-06T14:31:28Z</time>
      </trkpt>
      <trkpt lat="46.48947" lon="0.46333">
        <ele>138.486</ele>
        <time>2022-03-06T14:31:36Z</time>
      </trkpt>
      <trkpt lat="46.48949" lon="0.46323">
        <ele>138.524</ele>
        <time>2022-03-06T14:31:43Z</time>
      </trkpt>
      <trkpt lat="46.4895" lon="0.46314">
        <ele>138.557</ele>
        <time>2022-03-06T14:31:49Z</time>
      </trkpt>
      <trkpt lat="46.48952" lon="0.46303">
        <ele>138.6</ele>
        <time>2022-03-06T14:31:57Z</time>
      </trkpt>
      <trkpt lat="46.48954" lon="0.46294">
        <ele>138.636</ele>
        <time>2022-03-06T14:32:04Z</time>
      </trkpt>
      <trkpt lat="46.48955" lon="0.46284">
        <ele>138.67</ele>
        <time>2022-03-06T14:32:11Z</time>
      </trkpt>
      <trkpt lat="46.48957" lon="0.46275">
        <ele>138.705</ele>
        <time>2022-03-06T14:32:19Z</time>
      </trkpt>
      <trkpt lat="46.4896" lon="0.46265">
        <ele>138.733</ele>
        <time>2022-03-06T14:32:27Z</time>
      </trkpt>
      <trkpt lat="46.48962" lon="0.46256">
        <ele>138.75</ele>
        <time>2022-03-06T14:32:35Z</time>
      </trkpt>
      <trkpt lat="46.48965" lon="0.46248">
        <ele>138.755</ele>
        <time>2022-03-06T14:32:44Z</time>
      </trkpt>
      <trkpt lat="46.48961" lon="0.46239">
        <ele>138.754</ele>
        <time>2022-03-06T14:33:01Z</time>
      </trkpt>
      <trkpt lat="46.48955" lon="0.46233">
        <ele>138.757</ele>
        <time>2022-03-06T14:33:08Z</time>
      </trkpt>
      <trkpt lat="46.48949" lon="0.46228">
        <ele>138.753</ele>
        <time>2022-03-06T14:33:16Z</time>
      </trkpt>
      <trkpt lat="46.48944" lon="0.46223">
        <ele>138.748</ele>
        <time>2022-03-06T14:33:23Z</time>
      </trkpt>
      <trkpt lat="46.48938" lon="0.46216">
        <ele>138.745</ele>
        <time>2022-03-06T14:33:31Z</time>
      </trkpt>
      <trkpt lat="46.48933" lon="0.4621">
        <ele>138.743</ele>
        <time>2022-03-06T14:33:38Z</time>
      </trkpt>
      <trkpt lat="46.48927" lon="0.46205">
        <ele>138.74</ele>
        <time>2022-03-06T14:33:44Z</time>
      </trkpt>
      <trkpt lat="46.48921" lon="0.46201">
        <ele>138.734</ele>
        <time>2022-03-06T14:33:51Z</time>
      </trkpt>
      <trkpt lat="46.48914" lon="0.46196">
        <ele>138.721</ele>
        <time>2022-03-06T14:33:59Z</time>
      </trkpt>
      <trkpt lat="46.48908" lon="0.46191">
        <ele>138.696</ele>
        <time>2022-03-06T14:34:08Z</time>
      </trkpt>
      <trkpt lat="46.48902" lon="0.46184">
        <ele>138.669</ele>
        <time>2022-03-06T14:34:15Z</time>
      </trkpt>
      <trkpt lat="46.48897" lon="0.46178">
        <ele>138.636</ele>
        <time>2022-03-06T14:34:22Z</time>
      </trkpt>
      <trkpt lat="46.48892" lon="0.4617">
        <ele>138.587</ele>
        <time>2022-03-06T14:34:31Z</time>
      </trkpt>
      <trkpt lat="46.48886" lon="0.46165">
        <ele>138.544</ele>
        <time>2022-03-06T14:34:39Z</time>
      </trkpt>
      <trkpt lat="46.4888" lon="0.4616">
        <ele>138.51</ele>
        <time>2022-03-06T14:34:45Z</time>
      </trkpt>
      <trkpt lat="46.48873" lon="0.46156">
        <ele>138.483</ele>
        <time>2022-03-06T14:34:51Z</time>
      </trkpt>
      <trkpt lat="46.48866" lon="0.46152">
        <ele>138.462</ele>
        <time>2022-03-06T14:34:57Z</time>
      </trkpt>
      <trkpt lat="46.4886" lon="0.46147">
        <ele>138.439</ele>
        <time>2022-03-06T14:35:03Z</time>
      </trkpt>
      <trkpt lat="46.48854" lon="0.46141">
        <ele>138.411</ele>
        <time>2022-03-06T14:35:11Z</time>
      </trkpt>
      <trkpt lat="46.48848" lon="0.46136">
        <ele>138.388</ele>
        <time>2022-03-06T14:35:18Z</time>
      </trkpt>
      <trkpt lat="46.48842" lon="0.46133">
        <ele>138.361</ele>
        <time>2022-03-06T14:35:25Z</time>
      </trkpt>
      <trkpt lat="46.48835" lon="0.4613">
        <ele>138.335</ele>
        <time>2022-03-06T14:35:31Z</time>
      </trkpt>
      <trkpt lat="46.48829" lon="0.46125">
        <ele>138.306</ele>
        <time>2022-03-06T14:35:37Z</time>
      </trkpt>
      <trkpt lat="46.48824" lon="0.46119">
        <ele>138.267</ele>
        <time>2022-03-06T14:35:45Z</time>
      </trkpt>
      <trkpt lat="46.48817" lon="0.46116">
        <ele>138.221</ele>
        <time>2022-03-06T14:35:54Z</time>
      </trkpt>
      <trkpt lat="46.4881" lon="0.46111">
        <ele>138.197</ele>
        <time>2022-03-06T14:35:59Z</time>
      </trkpt>
      <trkpt lat="46.48803" lon="0.46107">
        <ele>138.168</ele>
        <time>2022-03-06T14:36:06Z</time>
      </trkpt>
      <trkpt lat="46.48796" lon="0.46104">
        <ele>138.15</ele>
        <time>2022-03-06T14:36:12Z</time>
      </trkpt>
      <trkpt lat="46.48789" lon="0.461">
        <ele>138.13</ele>
        <time>2022-03-06T14:36:21Z</time>
      </trkpt>
      <trkpt lat="46.48783" lon="0.46097">
        <ele>138.117</ele>
        <time>2022-03-06T14:36:29Z</time>
      </trkpt>
      <trkpt lat="46.48776" lon="0.46093">
        <ele>138.108</ele>
        <time>2022-03-06T14:36:36Z</time>
      </trkpt>
      <trkpt lat="46.48769" lon="0.4609">
        <ele>138.105</ele>
        <time>2022-03-06T14:36:42Z</time>
      </trkpt>
      <trkpt lat="46.48762" lon="0.46087">
        <ele>138.107</ele>
        <time>2022-03-06T14:36:48Z</time>
      </trkpt>
      <trkpt lat="46.48755" lon="0.46085">
        <ele>138.112</ele>
        <time>2022-03-06T14:36:53Z</time>
      </trkpt>
      <trkpt lat="46.4875" lon="0.46081">
        <ele>138.127</ele>
        <time>2022-03-06T14:37:00Z</time>
      </trkpt>
      <trkpt lat="46.48744" lon="0.46075">
        <ele>138.141</ele>
        <time>2022-03-06T14:37:06Z</time>
      </trkpt>
      <trkpt lat="46.48737" lon="0.46073">
        <ele>138.162</ele>
        <time>2022-03-06T14:37:16Z</time>
      </trkpt>
      <trkpt lat="46.48731" lon="0.46071">
        <ele>138.175</ele>
        <time>2022-03-06T14:37:24Z</time>
      </trkpt>
      <trkpt lat="46.48725" lon="0.46067">
        <ele>138.186</ele>
        <time>2022-03-06T14:37:31Z</time>
      </trkpt>
      <trkpt lat="46.48719" lon="0.46063">
        <ele>138.195</ele>
        <time>2022-03-06T14:37:36Z</time>
      </trkpt>
      <trkpt lat="46.48712" lon="0.4606">
        <ele>138.204</ele>
        <time>2022-03-06T14:37:43Z</time>
      </trkpt>
      <trkpt lat="46.48706" lon="0.46055">
        <ele>138.206</ele>
        <time>2022-03-06T14:37:50Z</time>
      </trkpt>
      <trkpt lat="46.48699" lon="0.46049">
        <ele>138.2</ele>
        <time>2022-03-06T14:37:57Z</time>
      </trkpt>
      <trkpt lat="46.48694" lon="0.46042">
        <ele>138.186</ele>
        <time>2022-03-06T14:38:05Z</time>
      </trkpt>
      <trkpt lat="46.4869" lon="0.46035">
        <ele>138.172</ele>
        <time>2022-03-06T14:38:11Z</time>
      </trkpt>
      <trkpt lat="46.48684" lon="0.46029">
        <ele>138.157</ele>
        <time>2022-03-06T14:38:18Z</time>
      </trkpt>
      <trkpt lat="46.48679" lon="0.46022">
        <ele>138.158</ele>
        <time>2022-03-06T14:38:26Z</time>
      </trkpt>
      <trkpt lat="46.48674" lon="0.46014">
        <ele>138.176</ele>
        <time>2022-03-06T14:38:33Z</time>
      </trkpt>
      <trkpt lat="46.4867" lon="0.46006">
        <ele>138.203</ele>
        <time>2022-03-06T14:38:40Z</time>
      </trkpt>
      <trkpt lat="46.48666" lon="0.45997">
        <ele>138.23</ele>
        <time>2022-03-06T14:38:46Z</time>
      </trkpt>
      <trkpt lat="46.48662" lon="0.45989">
        <ele>138.259</ele>
        <time>2022-03-06T14:38:52Z</time>
      </trkpt>
      <trkpt lat="46.48658" lon="0.4598">
        <ele>138.291</ele>
        <time>2022-03-06T14:38:58Z</time>
      </trkpt>
      <trkpt lat="46.48654" lon="0.45971">
        <ele>138.32</ele>
        <time>2022-03-06T14:39:04Z</time>
      </trkpt>
      <trkpt lat="46.4865" lon="0.45964">
        <ele>138.339</ele>
        <time>2022-03-06T14:39:09Z</time>
      </trkpt>
      <trkpt lat="46.48645" lon="0.45955">
        <ele>138.359</ele>
        <time>2022-03-06T14:39:16Z</time>
      </trkpt>
      <trkpt lat="46.48641" lon="0.45948">
        <ele>138.387</ele>
        <time>2022-03-06T14:39:24Z</time>
      </trkpt>
      <trkpt lat="46.48637" lon="0.4594">
        <ele>138.419</ele>
        <time>2022-03-06T14:39:32Z</time>
      </trkpt>
      <trkpt lat="46.48632" lon="0.45931">
        <ele>138.45</ele>
        <time>2022-03-06T14:39:39Z</time>
      </trkpt>
      <trkpt lat="46.48627" lon="0.45924">
        <ele>138.491</ele>
        <time>2022-03-06T14:39:47Z</time>
      </trkpt>
      <trkpt lat="46.48622" lon="0.45917">
        <ele>138.518</ele>
        <time>2022-03-06T14:39:52Z</time>
      </trkpt>
      <trkpt lat="46.48617" lon="0.4591">
        <ele>138.551</ele>
        <time>2022-03-06T14:39:59Z</time>
      </trkpt>
      <trkpt lat="46.48612" lon="0.45903">
        <ele>138.569</ele>
        <time>2022-03-06T14:40:06Z</time>
      </trkpt>
      <trkpt lat="46.48608" lon="0.45894">
        <ele>138.571</ele>
        <time>2022-03-06T14:40:14Z</time>
      </trkpt>
      <trkpt lat="46.48603" lon="0.45886">
        <ele>138.551</ele>
        <time>2022-03-06T14:40:22Z</time>
      </trkpt>
      <trkpt lat="46.48598" lon="0.4588">
        <ele>138.526</ele>
        <time>2022-03-06T14:40:30Z</time>
      </trkpt>
      <trkpt lat="46.48593" lon="0.45874">
        <ele>138.514</ele>
        <time>2022-03-06T14:40:36Z</time>
      </trkpt>
      <trkpt lat="46.48587" lon="0.45867">
        <ele>138.502</ele>
        <time>2022-03-06T14:40:43Z</time>
      </trkpt>
      <trkpt lat="46.48581" lon="0.45863">
        <ele>138.488</ele>
        <time>2022-03-06T14:40:50Z</time>
      </trkpt>
      <trkpt lat="46.48574" lon="0.45861">
        <ele>138.475</ele>
        <time>2022-03-06T14:40:58Z</time>
      </trkpt>
      <trkpt lat="46.48568" lon="0.45859">
        <ele>138.416</ele>
        <time>2022-03-06T14:42:29Z</time>
      </trkpt>
      <trkpt lat="46.48561" lon="0.45854">
        <ele>138.4</ele>
        <time>2022-03-06T14:42:44Z</time>
      </trkpt>
      <trkpt lat="46.48555" lon="0.45849">
        <ele>138.377</ele>
        <time>2022-03-06T14:42:52Z</time>
      </trkpt>
      <trkpt lat="46.48549" lon="0.45843">
        <ele>138.343</ele>
        <time>2022-03-06T14:43:03Z</time>
      </trkpt>
      <trkpt lat="46.48544" lon="0.45836">
        <ele>138.319</ele>
        <time>2022-03-06T14:43:12Z</time>
      </trkpt>
      <trkpt lat="46.48538" lon="0.45831">
        <ele>138.301</ele>
        <time>2022-03-06T14:43:20Z</time>
      </trkpt>
      <trkpt lat="46.48532" lon="0.45826">
        <ele>138.286</ele>
        <time>2022-03-06T14:43:28Z</time>
      </trkpt>
      <trkpt lat="46.48526" lon="0.4582">
        <ele>138.257</ele>
        <time>2022-03-06T14:43:38Z</time>
      </trkpt>
      <trkpt lat="46.4852" lon="0.45815">
        <ele>138.224</ele>
        <time>2022-03-06T14:43:46Z</time>
      </trkpt>
      <trkpt lat="46.48514" lon="0.4581">
        <ele>138.191</ele>
        <time>2022-03-06T14:43:53Z</time>
      </trkpt>
      <trkpt lat="46.48509" lon="0.45804">
        <ele>138.152</ele>
        <time>2022-03-06T14:44:00Z</time>
      </trkpt>
      <trkpt lat="46.48503" lon="0.45799">
        <ele>138.114</ele>
        <time>2022-03-06T14:44:07Z</time>
      </trkpt>
      <trkpt lat="46.48497" lon="0.45794">
        <ele>138.072</ele>
        <time>2022-03-06T14:44:15Z</time>
      </trkpt>
      <trkpt lat="46.4849" lon="0.4579">
        <ele>138.021</ele>
        <time>2022-03-06T14:44:24Z</time>
      </trkpt>
      <trkpt lat="46.48484" lon="0.45786">
        <ele>137.976</ele>
        <time>2022-03-06T14:44:31Z</time>
      </trkpt>
      <trkpt lat="46.48478" lon="0.45784">
        <ele>137.931</ele>
        <time>2022-03-06T14:44:38Z</time>
      </trkpt>
      <trkpt lat="46.48472" lon="0.45778">
        <ele>137.882</ele>
        <time>2022-03-06T14:44:45Z</time>
      </trkpt>
      <trkpt lat="46.48465" lon="0.45775">
        <ele>137.823</ele>
        <time>2022-03-06T14:44:53Z</time>
      </trkpt>
      <trkpt lat="46.48458" lon="0.45773">
        <ele>137.76</ele>
        <time>2022-03-06T14:45:01Z</time>
      </trkpt>
      <trkpt lat="46.48452" lon="0.45772">
        <ele>137.701</ele>
        <time>2022-03-06T14:45:08Z</time>
      </trkpt>
      <trkpt lat="46.48445" lon="0.45769">
        <ele>137.628</ele>
        <time>2022-03-06T14:45:16Z</time>
      </trkpt>
      <trkpt lat="46.48439" lon="0.45766">
        <ele>137.563</ele>
        <time>2022-03-06T14:45:23Z</time>
      </trkpt>
      <trkpt lat="46.48432" lon="0.45764">
        <ele>137.5</ele>
        <time>2022-03-06T14:45:30Z</time>
      </trkpt>
      <trkpt lat="46.48425" lon="0.45762">
        <ele>137.433</ele>
        <time>2022-03-06T14:45:37Z</time>
      </trkpt>
      <trkpt lat="46.48418" lon="0.45761">
        <ele>137.365</ele>
        <time>2022-03-06T14:45:44Z</time>
      </trkpt>
      <trkpt lat="46.48412" lon="0.45758">
        <ele>137.297</ele>
        <time>2022-03-06T14:45:51Z</time>
      </trkpt>
      <trkpt lat="46.48404" lon="0.45757">
        <ele>137.231</ele>
        <time>2022-03-06T14:45:58Z</time>
      </trkpt>
      <trkpt lat="46.48398" lon="0.45754">
        <ele>137.166</ele>
        <time>2022-03-06T14:46:05Z</time>
      </trkpt>
      <trkpt lat="46.48391" lon="0.45749">
        <ele>137.099</ele>
        <time>2022-03-06T14:46:12Z</time>
      </trkpt>
      <trkpt lat="46.48386" lon="0.45744">
        <ele>137.045</ele>
        <time>2022-03-06T14:46:18Z</time>
      </trkpt>
      <trkpt lat="46.48379" lon="0.45739">
        <ele>136.985</ele>
        <time>2022-03-06T14:46:25Z</time>
      </trkpt>
      <trkpt lat="46.48372" lon="0.45737">
        <ele>136.917</ele>
        <time>2022-03-06T14:46:33Z</time>
      </trkpt>
      <trkpt lat="46.48367" lon="0.45732">
        <ele>136.86</ele>
        <time>2022-03-06T14:46:40Z</time>
      </trkpt>
      <trkpt lat="46.48363" lon="0.45723">
        <ele>136.81</ele>
        <time>2022-03-06T14:46:46Z</time>
      </trkpt>
      <trkpt lat="46.48363" lon="0.45713">
        <ele>136.763</ele>
        <time>2022-03-06T14:46:52Z</time>
      </trkpt>
      <trkpt lat="46.48365" lon="0.45704">
        <ele>136.713</ele>
        <time>2022-03-06T14:46:59Z</time>
      </trkpt>
      <trkpt lat="46.48367" lon="0.45694">
        <ele>136.662</ele>
        <time>2022-03-06T14:47:07Z</time>
      </trkpt>
      <trkpt lat="46.48369" lon="0.45685">
        <ele>136.618</ele>
        <time>2022-03-06T14:47:15Z</time>
      </trkpt>
      <trkpt lat="46.48371" lon="0.45676">
        <ele>136.58</ele>
        <time>2022-03-06T14:47:23Z</time>
      </trkpt>
      <trkpt lat="46.48371" lon="0.45666">
        <ele>136.547</ele>
        <time>2022-03-06T14:47:31Z</time>
      </trkpt>
      <trkpt lat="46.48369" lon="0.45656">
        <ele>136.518</ele>
        <time>2022-03-06T14:47:40Z</time>
      </trkpt>
      <trkpt lat="46.48366" lon="0.45647">
        <ele>136.492</ele>
        <time>2022-03-06T14:47:47Z</time>
      </trkpt>
      <trkpt lat="46.48367" lon="0.45636">
        <ele>136.463</ele>
        <time>2022-03-06T14:47:55Z</time>
      </trkpt>
      <trkpt lat="46.48367" lon="0.45626">
        <ele>136.441</ele>
        <time>2022-03-06T14:48:02Z</time>
      </trkpt>
      <trkpt lat="46.48368" lon="0.45616">
        <ele>136.422</ele>
        <time>2022-03-06T14:48:09Z</time>
      </trkpt>
      <trkpt lat="46.48369" lon="0.45606">
        <ele>136.406</ele>
        <time>2022-03-06T14:48:17Z</time>
      </trkpt>
      <trkpt lat="46.48369" lon="0.45596">
        <ele>136.393</ele>
        <time>2022-03-06T14:48:25Z</time>
      </trkpt>
      <trkpt lat="46.4837" lon="0.45585">
        <ele>136.384</ele>
        <time>2022-03-06T14:48:32Z</time>
      </trkpt>
      <trkpt lat="46.4837" lon="0.45576">
        <ele>136.375</ele>
        <time>2022-03-06T14:48:40Z</time>
      </trkpt>
      <trkpt lat="46.48371" lon="0.45566">
        <ele>136.365</ele>
        <time>2022-03-06T14:48:48Z</time>
      </trkpt>
      <trkpt lat="46.48371" lon="0.45555">
        <ele>136.356</ele>
        <time>2022-03-06T14:48:55Z</time>
      </trkpt>
      <trkpt lat="46.4837" lon="0.45545">
        <ele>136.349</ele>
        <time>2022-03-06T14:49:02Z</time>
      </trkpt>
      <trkpt lat="46.48371" lon="0.45536">
        <ele>136.34</ele>
        <time>2022-03-06T14:49:11Z</time>
      </trkpt>
      <trkpt lat="46.4837" lon="0.45526">
        <ele>136.326</ele>
        <time>2022-03-06T14:49:19Z</time>
      </trkpt>
      <trkpt lat="46.48372" lon="0.45517">
        <ele>136.302</ele>
        <time>2022-03-06T14:49:27Z</time>
      </trkpt>
      <trkpt lat="46.48373" lon="0.45506">
        <ele>136.282</ele>
        <time>2022-03-06T14:49:33Z</time>
      </trkpt>
      <trkpt lat="46.48376" lon="0.45497">
        <ele>136.259</ele>
        <time>2022-03-06T14:49:40Z</time>
      </trkpt>
      <trkpt lat="46.48375" lon="0.45487">
        <ele>136.236</ele>
        <time>2022-03-06T14:49:46Z</time>
      </trkpt>
      <trkpt lat="46.48371" lon="0.4548">
        <ele>136.205</ele>
        <time>2022-03-06T14:49:54Z</time>
      </trkpt>
      <trkpt lat="46.48363" lon="0.45478">
        <ele>136.179</ele>
        <time>2022-03-06T14:50:01Z</time>
      </trkpt>
      <trkpt lat="46.48357" lon="0.45477">
        <ele>136.156</ele>
        <time>2022-03-06T14:50:07Z</time>
      </trkpt>
      <trkpt lat="46.4835" lon="0.4548">
        <ele>136.128</ele>
        <time>2022-03-06T14:50:13Z</time>
      </trkpt>
      <trkpt lat="46.48343" lon="0.45475">
        <ele>136.1</ele>
        <time>2022-03-06T14:50:19Z</time>
      </trkpt>
      <trkpt lat="46.48336" lon="0.45472">
        <ele>136.064</ele>
        <time>2022-03-06T14:50:27Z</time>
      </trkpt>
      <trkpt lat="46.4833" lon="0.45469">
        <ele>136.036</ele>
        <time>2022-03-06T14:50:34Z</time>
      </trkpt>
    </trkseg>
  </trk>
</gpx>